<?xml version="1.0" encoding="UTF-8" standalone="no" ?>
<gpx xmlns="http://www.topografix.com/GPX/1/1" xmlns:xsi="http://www.w3.org/2001/XMLSchema-instance" xsi:schemaLocation="http://www.topografix.com/GPX/1/1 http://www.topografix.com/GPX/1/1/gpx.xsd" version="1.1" creator="VisuGPX - https://www.visugpx.com">
  <metadata>
    <name>De la gare du Trayas au Pic de l\'Ours</name>
    <desc><![CDATA[Gare du Trayas, col des Lentisques, Dent de l\'Ours, Pic de l\'Ours, col Notre-Dame, gare]]></desc>
  </metadata>
  <trk>
    <name><![CDATA[Tracé actuel: 03 MARS 2013 11:28]]></name>
    <trkseg>
      <trkpt lat="43.4756" lon="6.92405">
        <ele>31.38</ele>
        <time>2013-03-03T10:28:47Z</time>
      </trkpt>
      <trkpt lat="43.47559" lon="6.92406">
        <ele>30.42</ele>
        <time>2013-03-03T10:29:04Z</time>
      </trkpt>
      <trkpt lat="43.47559" lon="6.92406">
        <ele>32.34</ele>
        <time>2013-03-03T10:29:05Z</time>
      </trkpt>
      <trkpt lat="43.47561" lon="6.92406">
        <ele>31.38</ele>
        <time>2013-03-03T10:29:20Z</time>
      </trkpt>
      <trkpt lat="43.47563" lon="6.92405">
        <ele>31.86</ele>
        <time>2013-03-03T10:29:31Z</time>
      </trkpt>
      <trkpt lat="43.47564" lon="6.92409">
        <ele>31.86</ele>
        <time>2013-03-03T10:29:51Z</time>
      </trkpt>
      <trkpt lat="43.47563" lon="6.92422">
        <ele>30.9</ele>
        <time>2013-03-03T10:30:02Z</time>
      </trkpt>
      <trkpt lat="43.47561" lon="6.9243">
        <ele>31.38</ele>
        <time>2013-03-03T10:30:10Z</time>
      </trkpt>
      <trkpt lat="43.4756" lon="6.92432">
        <ele>31.38</ele>
        <time>2013-03-03T10:30:11Z</time>
      </trkpt>
      <trkpt lat="43.47534" lon="6.92442">
        <ele>31.38</ele>
        <time>2013-03-03T10:30:25Z</time>
      </trkpt>
      <trkpt lat="43.47528" lon="6.92441">
        <ele>30.9</ele>
        <time>2013-03-03T10:30:28Z</time>
      </trkpt>
      <trkpt lat="43.4751" lon="6.92454">
        <ele>30.42</ele>
        <time>2013-03-03T10:30:45Z</time>
      </trkpt>
      <trkpt lat="43.47505" lon="6.92455">
        <ele>30.42</ele>
        <time>2013-03-03T10:30:49Z</time>
      </trkpt>
      <trkpt lat="43.47496" lon="6.92449">
        <ele>30.42</ele>
        <time>2013-03-03T10:31:04Z</time>
      </trkpt>
      <trkpt lat="43.47494" lon="6.92438">
        <ele>31.38</ele>
        <time>2013-03-03T10:31:19Z</time>
      </trkpt>
      <trkpt lat="43.47486" lon="6.92422">
        <ele>31.86</ele>
        <time>2013-03-03T10:31:35Z</time>
      </trkpt>
      <trkpt lat="43.47481" lon="6.92412">
        <ele>32.34</ele>
        <time>2013-03-03T10:31:44Z</time>
      </trkpt>
      <trkpt lat="43.47474" lon="6.92396">
        <ele>32.82</ele>
        <time>2013-03-03T10:31:55Z</time>
      </trkpt>
      <trkpt lat="43.47461" lon="6.92371">
        <ele>33.3</ele>
        <time>2013-03-03T10:32:09Z</time>
      </trkpt>
      <trkpt lat="43.47448" lon="6.92347">
        <ele>33.3</ele>
        <time>2013-03-03T10:32:25Z</time>
      </trkpt>
      <trkpt lat="43.47436" lon="6.92316">
        <ele>33.3</ele>
        <time>2013-03-03T10:32:44Z</time>
      </trkpt>
      <trkpt lat="43.47431" lon="6.92302">
        <ele>34.26</ele>
        <time>2013-03-03T10:32:57Z</time>
      </trkpt>
      <trkpt lat="43.47419" lon="6.9228">
        <ele>36.19</ele>
        <time>2013-03-03T10:33:13Z</time>
      </trkpt>
      <trkpt lat="43.47418" lon="6.92278">
        <ele>37.15</ele>
        <time>2013-03-03T10:33:15Z</time>
      </trkpt>
      <trkpt lat="43.47412" lon="6.92269">
        <ele>37.63</ele>
        <time>2013-03-03T10:33:22Z</time>
      </trkpt>
      <trkpt lat="43.47409" lon="6.9225">
        <ele>40.51</ele>
        <time>2013-03-03T10:33:37Z</time>
      </trkpt>
      <trkpt lat="43.47411" lon="6.92235">
        <ele>41.95</ele>
        <time>2013-03-03T10:33:52Z</time>
      </trkpt>
      <trkpt lat="43.47411" lon="6.9222">
        <ele>43.88</ele>
        <time>2013-03-03T10:34:04Z</time>
      </trkpt>
      <trkpt lat="43.47403" lon="6.92204">
        <ele>45.32</ele>
        <time>2013-03-03T10:34:17Z</time>
      </trkpt>
      <trkpt lat="43.47393" lon="6.92194">
        <ele>47.72</ele>
        <time>2013-03-03T10:34:31Z</time>
      </trkpt>
      <trkpt lat="43.47378" lon="6.92189">
        <ele>49.16</ele>
        <time>2013-03-03T10:34:47Z</time>
      </trkpt>
      <trkpt lat="43.47371" lon="6.92188">
        <ele>50.13</ele>
        <time>2013-03-03T10:34:54Z</time>
      </trkpt>
      <trkpt lat="43.47362" lon="6.92193">
        <ele>51.09</ele>
        <time>2013-03-03T10:35:02Z</time>
      </trkpt>
      <trkpt lat="43.47353" lon="6.92195">
        <ele>51.57</ele>
        <time>2013-03-03T10:35:10Z</time>
      </trkpt>
      <trkpt lat="43.47342" lon="6.92191">
        <ele>53.01</ele>
        <time>2013-03-03T10:35:24Z</time>
      </trkpt>
      <trkpt lat="43.47325" lon="6.92184">
        <ele>53.97</ele>
        <time>2013-03-03T10:35:40Z</time>
      </trkpt>
      <trkpt lat="43.47304" lon="6.9218">
        <ele>54.45</ele>
        <time>2013-03-03T10:35:56Z</time>
      </trkpt>
      <trkpt lat="43.47295" lon="6.92175">
        <ele>55.41</ele>
        <time>2013-03-03T10:36:11Z</time>
      </trkpt>
      <trkpt lat="43.47294" lon="6.92177">
        <ele>54.45</ele>
        <time>2013-03-03T10:36:29Z</time>
      </trkpt>
      <trkpt lat="43.47294" lon="6.92175">
        <ele>55.89</ele>
        <time>2013-03-03T10:36:54Z</time>
      </trkpt>
      <trkpt lat="43.47291" lon="6.92171">
        <ele>55.89</ele>
        <time>2013-03-03T10:37:11Z</time>
      </trkpt>
      <trkpt lat="43.47285" lon="6.92162">
        <ele>57.82</ele>
        <time>2013-03-03T10:37:24Z</time>
      </trkpt>
      <trkpt lat="43.47279" lon="6.92148">
        <ele>59.74</ele>
        <time>2013-03-03T10:37:38Z</time>
      </trkpt>
      <trkpt lat="43.47277" lon="6.92135">
        <ele>61.66</ele>
        <time>2013-03-03T10:37:51Z</time>
      </trkpt>
      <trkpt lat="43.47275" lon="6.92122">
        <ele>63.1</ele>
        <time>2013-03-03T10:38:03Z</time>
      </trkpt>
      <trkpt lat="43.47278" lon="6.92111">
        <ele>65.03</ele>
        <time>2013-03-03T10:38:16Z</time>
      </trkpt>
      <trkpt lat="43.47281" lon="6.92099">
        <ele>66.95</ele>
        <time>2013-03-03T10:38:28Z</time>
      </trkpt>
      <trkpt lat="43.47282" lon="6.92095">
        <ele>67.91</ele>
        <time>2013-03-03T10:38:32Z</time>
      </trkpt>
      <trkpt lat="43.47282" lon="6.92085">
        <ele>69.35</ele>
        <time>2013-03-03T10:38:39Z</time>
      </trkpt>
      <trkpt lat="43.47286" lon="6.92067">
        <ele>70.31</ele>
        <time>2013-03-03T10:38:54Z</time>
      </trkpt>
      <trkpt lat="43.4729" lon="6.92053">
        <ele>72.72</ele>
        <time>2013-03-03T10:39:07Z</time>
      </trkpt>
      <trkpt lat="43.47292" lon="6.92025">
        <ele>74.16</ele>
        <time>2013-03-03T10:39:20Z</time>
      </trkpt>
      <trkpt lat="43.47294" lon="6.92007">
        <ele>76.08</ele>
        <time>2013-03-03T10:39:31Z</time>
      </trkpt>
      <trkpt lat="43.47297" lon="6.91995">
        <ele>78</ele>
        <time>2013-03-03T10:39:45Z</time>
      </trkpt>
      <trkpt lat="43.47303" lon="6.91979">
        <ele>80.41</ele>
        <time>2013-03-03T10:40:01Z</time>
      </trkpt>
      <trkpt lat="43.473" lon="6.91966">
        <ele>82.81</ele>
        <time>2013-03-03T10:40:10Z</time>
      </trkpt>
      <trkpt lat="43.47291" lon="6.91959">
        <ele>84.73</ele>
        <time>2013-03-03T10:40:24Z</time>
      </trkpt>
      <trkpt lat="43.47282" lon="6.91952">
        <ele>87.14</ele>
        <time>2013-03-03T10:40:39Z</time>
      </trkpt>
      <trkpt lat="43.47273" lon="6.91942">
        <ele>89.54</ele>
        <time>2013-03-03T10:40:55Z</time>
      </trkpt>
      <trkpt lat="43.47267" lon="6.9193">
        <ele>91.46</ele>
        <time>2013-03-03T10:41:10Z</time>
      </trkpt>
      <trkpt lat="43.47263" lon="6.91921">
        <ele>93.39</ele>
        <time>2013-03-03T10:41:22Z</time>
      </trkpt>
      <trkpt lat="43.47257" lon="6.91908">
        <ele>95.79</ele>
        <time>2013-03-03T10:41:36Z</time>
      </trkpt>
      <trkpt lat="43.47255" lon="6.91906">
        <ele>96.27</ele>
        <time>2013-03-03T10:41:38Z</time>
      </trkpt>
      <trkpt lat="43.47253" lon="6.919">
        <ele>97.23</ele>
        <time>2013-03-03T10:41:43Z</time>
      </trkpt>
      <trkpt lat="43.47249" lon="6.91885">
        <ele>98.19</ele>
        <time>2013-03-03T10:41:56Z</time>
      </trkpt>
      <trkpt lat="43.47247" lon="6.91865">
        <ele>100.6</ele>
        <time>2013-03-03T10:42:11Z</time>
      </trkpt>
      <trkpt lat="43.47247" lon="6.91844">
        <ele>102.52</ele>
        <time>2013-03-03T10:42:23Z</time>
      </trkpt>
      <trkpt lat="43.47249" lon="6.91827">
        <ele>104.44</ele>
        <time>2013-03-03T10:42:36Z</time>
      </trkpt>
      <trkpt lat="43.47251" lon="6.91814">
        <ele>105.4</ele>
        <time>2013-03-03T10:42:48Z</time>
      </trkpt>
      <trkpt lat="43.47253" lon="6.91797">
        <ele>107.81</ele>
        <time>2013-03-03T10:43:03Z</time>
      </trkpt>
      <trkpt lat="43.47253" lon="6.91782">
        <ele>109.25</ele>
        <time>2013-03-03T10:43:16Z</time>
      </trkpt>
      <trkpt lat="43.4725" lon="6.91771">
        <ele>111.17</ele>
        <time>2013-03-03T10:43:28Z</time>
      </trkpt>
      <trkpt lat="43.47245" lon="6.91761">
        <ele>112.61</ele>
        <time>2013-03-03T10:43:45Z</time>
      </trkpt>
      <trkpt lat="43.47239" lon="6.9175">
        <ele>115.5</ele>
        <time>2013-03-03T10:44:01Z</time>
      </trkpt>
      <trkpt lat="43.4723" lon="6.91741">
        <ele>116.94</ele>
        <time>2013-03-03T10:44:13Z</time>
      </trkpt>
      <trkpt lat="43.47226" lon="6.91737">
        <ele>117.42</ele>
        <time>2013-03-03T10:44:24Z</time>
      </trkpt>
      <trkpt lat="43.47221" lon="6.91732">
        <ele>116.94</ele>
        <time>2013-03-03T10:44:46Z</time>
      </trkpt>
      <trkpt lat="43.47219" lon="6.91726">
        <ele>117.42</ele>
        <time>2013-03-03T10:45:03Z</time>
      </trkpt>
      <trkpt lat="43.47217" lon="6.91727">
        <ele>118.38</ele>
        <time>2013-03-03T10:45:24Z</time>
      </trkpt>
      <trkpt lat="43.47211" lon="6.91715">
        <ele>119.34</ele>
        <time>2013-03-03T10:45:37Z</time>
      </trkpt>
      <trkpt lat="43.4721" lon="6.91712">
        <ele>115.01</ele>
        <time>2013-03-03T10:45:41Z</time>
      </trkpt>
      <trkpt lat="43.4721" lon="6.91711">
        <ele>123.19</ele>
        <time>2013-03-03T10:45:42Z</time>
      </trkpt>
      <trkpt lat="43.47209" lon="6.91706">
        <ele>119.82</ele>
        <time>2013-03-03T10:45:47Z</time>
      </trkpt>
      <trkpt lat="43.47206" lon="6.91694">
        <ele>122.71</ele>
        <time>2013-03-03T10:46:00Z</time>
      </trkpt>
      <trkpt lat="43.47204" lon="6.91677">
        <ele>125.11</ele>
        <time>2013-03-03T10:46:17Z</time>
      </trkpt>
      <trkpt lat="43.47202" lon="6.91665">
        <ele>126.55</ele>
        <time>2013-03-03T10:46:30Z</time>
      </trkpt>
      <trkpt lat="43.47199" lon="6.91652">
        <ele>128.95</ele>
        <time>2013-03-03T10:46:43Z</time>
      </trkpt>
      <trkpt lat="43.47194" lon="6.9164">
        <ele>130.88</ele>
        <time>2013-03-03T10:46:58Z</time>
      </trkpt>
      <trkpt lat="43.4719" lon="6.91629">
        <ele>132.8</ele>
        <time>2013-03-03T10:47:10Z</time>
      </trkpt>
      <trkpt lat="43.47188" lon="6.91618">
        <ele>134.24</ele>
        <time>2013-03-03T10:47:23Z</time>
      </trkpt>
      <trkpt lat="43.47182" lon="6.91603">
        <ele>136.64</ele>
        <time>2013-03-03T10:47:38Z</time>
      </trkpt>
      <trkpt lat="43.47175" lon="6.9159">
        <ele>138.09</ele>
        <time>2013-03-03T10:47:51Z</time>
      </trkpt>
      <trkpt lat="43.4717" lon="6.91579">
        <ele>140.01</ele>
        <time>2013-03-03T10:48:02Z</time>
      </trkpt>
      <trkpt lat="43.47164" lon="6.91564">
        <ele>141.45</ele>
        <time>2013-03-03T10:48:16Z</time>
      </trkpt>
      <trkpt lat="43.47162" lon="6.91548">
        <ele>142.89</ele>
        <time>2013-03-03T10:48:29Z</time>
      </trkpt>
      <trkpt lat="43.47163" lon="6.91533">
        <ele>144.34</ele>
        <time>2013-03-03T10:48:42Z</time>
      </trkpt>
      <trkpt lat="43.47162" lon="6.91522">
        <ele>145.3</ele>
        <time>2013-03-03T10:48:53Z</time>
      </trkpt>
      <trkpt lat="43.47166" lon="6.91506">
        <ele>147.22</ele>
        <time>2013-03-03T10:49:08Z</time>
      </trkpt>
      <trkpt lat="43.47172" lon="6.91494">
        <ele>149.62</ele>
        <time>2013-03-03T10:49:20Z</time>
      </trkpt>
      <trkpt lat="43.47177" lon="6.91481">
        <ele>152.03</ele>
        <time>2013-03-03T10:49:34Z</time>
      </trkpt>
      <trkpt lat="43.47182" lon="6.91466">
        <ele>154.91</ele>
        <time>2013-03-03T10:49:49Z</time>
      </trkpt>
      <trkpt lat="43.47187" lon="6.91453">
        <ele>156.35</ele>
        <time>2013-03-03T10:50:02Z</time>
      </trkpt>
      <trkpt lat="43.47196" lon="6.91442">
        <ele>157.79</ele>
        <time>2013-03-03T10:50:16Z</time>
      </trkpt>
      <trkpt lat="43.472" lon="6.91427">
        <ele>159.72</ele>
        <time>2013-03-03T10:50:30Z</time>
      </trkpt>
      <trkpt lat="43.47207" lon="6.91418">
        <ele>162.12</ele>
        <time>2013-03-03T10:50:44Z</time>
      </trkpt>
      <trkpt lat="43.47217" lon="6.91404">
        <ele>164.52</ele>
        <time>2013-03-03T10:51:01Z</time>
      </trkpt>
      <trkpt lat="43.47225" lon="6.91397">
        <ele>166.93</ele>
        <time>2013-03-03T10:51:18Z</time>
      </trkpt>
      <trkpt lat="43.47231" lon="6.9139">
        <ele>169.33</ele>
        <time>2013-03-03T10:51:36Z</time>
      </trkpt>
      <trkpt lat="43.47236" lon="6.9138">
        <ele>169.81</ele>
        <time>2013-03-03T10:52:06Z</time>
      </trkpt>
      <trkpt lat="43.47247" lon="6.91374">
        <ele>171.25</ele>
        <time>2013-03-03T10:52:20Z</time>
      </trkpt>
      <trkpt lat="43.47253" lon="6.91363">
        <ele>173.66</ele>
        <time>2013-03-03T10:52:37Z</time>
      </trkpt>
      <trkpt lat="43.47249" lon="6.91349">
        <ele>175.1</ele>
        <time>2013-03-03T10:52:50Z</time>
      </trkpt>
      <trkpt lat="43.47245" lon="6.91337">
        <ele>177.98</ele>
        <time>2013-03-03T10:53:02Z</time>
      </trkpt>
      <trkpt lat="43.47241" lon="6.91322">
        <ele>179.9</ele>
        <time>2013-03-03T10:53:16Z</time>
      </trkpt>
      <trkpt lat="43.47239" lon="6.91307">
        <ele>182.31</ele>
        <time>2013-03-03T10:53:32Z</time>
      </trkpt>
      <trkpt lat="43.47242" lon="6.91292">
        <ele>184.71</ele>
        <time>2013-03-03T10:53:49Z</time>
      </trkpt>
      <trkpt lat="43.47242" lon="6.9128">
        <ele>187.59</ele>
        <time>2013-03-03T10:54:03Z</time>
      </trkpt>
      <trkpt lat="43.47245" lon="6.91262">
        <ele>189.04</ele>
        <time>2013-03-03T10:54:16Z</time>
      </trkpt>
      <trkpt lat="43.47246" lon="6.91248">
        <ele>191.92</ele>
        <time>2013-03-03T10:54:31Z</time>
      </trkpt>
      <trkpt lat="43.47247" lon="6.91231">
        <ele>194.8</ele>
        <time>2013-03-03T10:54:45Z</time>
      </trkpt>
      <trkpt lat="43.47245" lon="6.9121">
        <ele>196.73</ele>
        <time>2013-03-03T10:54:58Z</time>
      </trkpt>
      <trkpt lat="43.47244" lon="6.91199">
        <ele>198.17</ele>
        <time>2013-03-03T10:55:11Z</time>
      </trkpt>
      <trkpt lat="43.47236" lon="6.91188">
        <ele>200.57</ele>
        <time>2013-03-03T10:55:25Z</time>
      </trkpt>
      <trkpt lat="43.47223" lon="6.91184">
        <ele>202.01</ele>
        <time>2013-03-03T10:55:39Z</time>
      </trkpt>
      <trkpt lat="43.47214" lon="6.91187">
        <ele>204.42</ele>
        <time>2013-03-03T10:55:53Z</time>
      </trkpt>
      <trkpt lat="43.47204" lon="6.91188">
        <ele>205.86</ele>
        <time>2013-03-03T10:56:07Z</time>
      </trkpt>
      <trkpt lat="43.472" lon="6.91189">
        <ele>206.82</ele>
        <time>2013-03-03T10:56:12Z</time>
      </trkpt>
      <trkpt lat="43.4719" lon="6.91189">
        <ele>208.26</ele>
        <time>2013-03-03T10:56:25Z</time>
      </trkpt>
      <trkpt lat="43.47179" lon="6.91193">
        <ele>210.19</ele>
        <time>2013-03-03T10:56:39Z</time>
      </trkpt>
      <trkpt lat="43.47166" lon="6.91195">
        <ele>212.59</ele>
        <time>2013-03-03T10:56:55Z</time>
      </trkpt>
      <trkpt lat="43.47157" lon="6.91198">
        <ele>214.51</ele>
        <time>2013-03-03T10:57:07Z</time>
      </trkpt>
      <trkpt lat="43.47152" lon="6.91206">
        <ele>214.99</ele>
        <time>2013-03-03T10:57:23Z</time>
      </trkpt>
      <trkpt lat="43.47141" lon="6.91205">
        <ele>216.43</ele>
        <time>2013-03-03T10:57:35Z</time>
      </trkpt>
      <trkpt lat="43.47132" lon="6.91204">
        <ele>217.4</ele>
        <time>2013-03-03T10:57:44Z</time>
      </trkpt>
      <trkpt lat="43.47125" lon="6.91192">
        <ele>219.8</ele>
        <time>2013-03-03T10:57:57Z</time>
      </trkpt>
      <trkpt lat="43.47118" lon="6.91179">
        <ele>221.72</ele>
        <time>2013-03-03T10:58:10Z</time>
      </trkpt>
      <trkpt lat="43.47114" lon="6.91166">
        <ele>223.64</ele>
        <time>2013-03-03T10:58:23Z</time>
      </trkpt>
      <trkpt lat="43.47109" lon="6.91154">
        <ele>224.61</ele>
        <time>2013-03-03T10:58:34Z</time>
      </trkpt>
      <trkpt lat="43.47103" lon="6.91139">
        <ele>227.01</ele>
        <time>2013-03-03T10:58:48Z</time>
      </trkpt>
      <trkpt lat="43.47098" lon="6.91125">
        <ele>229.41</ele>
        <time>2013-03-03T10:59:01Z</time>
      </trkpt>
      <trkpt lat="43.4709" lon="6.91109">
        <ele>230.37</ele>
        <time>2013-03-03T10:59:17Z</time>
      </trkpt>
      <trkpt lat="43.47085" lon="6.91097">
        <ele>232.3</ele>
        <time>2013-03-03T10:59:30Z</time>
      </trkpt>
      <trkpt lat="43.47079" lon="6.91082">
        <ele>233.74</ele>
        <time>2013-03-03T10:59:44Z</time>
      </trkpt>
      <trkpt lat="43.47074" lon="6.91069">
        <ele>235.66</ele>
        <time>2013-03-03T10:59:56Z</time>
      </trkpt>
      <trkpt lat="43.47068" lon="6.91056">
        <ele>237.1</ele>
        <time>2013-03-03T11:00:10Z</time>
      </trkpt>
      <trkpt lat="43.47064" lon="6.91045">
        <ele>239.51</ele>
        <time>2013-03-03T11:00:21Z</time>
      </trkpt>
      <trkpt lat="43.47063" lon="6.91045">
        <ele>239.51</ele>
        <time>2013-03-03T11:00:34Z</time>
      </trkpt>
      <trkpt lat="43.4706" lon="6.91035">
        <ele>240.95</ele>
        <time>2013-03-03T11:00:53Z</time>
      </trkpt>
      <trkpt lat="43.4706" lon="6.91024">
        <ele>242.39</ele>
        <time>2013-03-03T11:01:06Z</time>
      </trkpt>
      <trkpt lat="43.4706" lon="6.91014">
        <ele>244.31</ele>
        <time>2013-03-03T11:01:19Z</time>
      </trkpt>
      <trkpt lat="43.47056" lon="6.91">
        <ele>245.75</ele>
        <time>2013-03-03T11:01:33Z</time>
      </trkpt>
      <trkpt lat="43.47051" lon="6.90988">
        <ele>247.68</ele>
        <time>2013-03-03T11:01:47Z</time>
      </trkpt>
      <trkpt lat="43.47046" lon="6.90973">
        <ele>249.12</ele>
        <time>2013-03-03T11:02:02Z</time>
      </trkpt>
      <trkpt lat="43.4704" lon="6.90958">
        <ele>251.04</ele>
        <time>2013-03-03T11:02:16Z</time>
      </trkpt>
      <trkpt lat="43.47034" lon="6.90944">
        <ele>252.48</ele>
        <time>2013-03-03T11:02:31Z</time>
      </trkpt>
      <trkpt lat="43.47029" lon="6.90932">
        <ele>254.41</ele>
        <time>2013-03-03T11:02:44Z</time>
      </trkpt>
      <trkpt lat="43.47023" lon="6.90915">
        <ele>256.33</ele>
        <time>2013-03-03T11:03:01Z</time>
      </trkpt>
      <trkpt lat="43.47013" lon="6.90901">
        <ele>257.77</ele>
        <time>2013-03-03T11:03:16Z</time>
      </trkpt>
      <trkpt lat="43.47004" lon="6.9089">
        <ele>259.21</ele>
        <time>2013-03-03T11:03:31Z</time>
      </trkpt>
      <trkpt lat="43.47003" lon="6.90884">
        <ele>260.65</ele>
        <time>2013-03-03T11:03:43Z</time>
      </trkpt>
      <trkpt lat="43.47001" lon="6.90885">
        <ele>260.17</ele>
        <time>2013-03-03T11:03:45Z</time>
      </trkpt>
      <trkpt lat="43.46989" lon="6.90899">
        <ele>258.73</ele>
        <time>2013-03-03T11:04:00Z</time>
      </trkpt>
      <trkpt lat="43.46972" lon="6.9092">
        <ele>257.29</ele>
        <time>2013-03-03T11:04:17Z</time>
      </trkpt>
      <trkpt lat="43.46971" lon="6.90924">
        <ele>256.81</ele>
        <time>2013-03-03T11:04:29Z</time>
      </trkpt>
      <trkpt lat="43.46974" lon="6.90928">
        <ele>256.81</ele>
        <time>2013-03-03T11:05:00Z</time>
      </trkpt>
      <trkpt lat="43.46971" lon="6.90931">
        <ele>256.33</ele>
        <time>2013-03-03T11:05:14Z</time>
      </trkpt>
      <trkpt lat="43.46973" lon="6.90932">
        <ele>255.85</ele>
        <time>2013-03-03T11:05:51Z</time>
      </trkpt>
      <trkpt lat="43.46974" lon="6.90932">
        <ele>256.33</ele>
        <time>2013-03-03T11:06:21Z</time>
      </trkpt>
      <trkpt lat="43.46972" lon="6.90933">
        <ele>255.85</ele>
        <time>2013-03-03T11:06:45Z</time>
      </trkpt>
      <trkpt lat="43.46972" lon="6.90932">
        <ele>256.81</ele>
        <time>2013-03-03T11:07:07Z</time>
      </trkpt>
      <trkpt lat="43.46974" lon="6.90932">
        <ele>256.81</ele>
        <time>2013-03-03T11:07:38Z</time>
      </trkpt>
      <trkpt lat="43.46972" lon="6.90934">
        <ele>257.29</ele>
        <time>2013-03-03T11:08:08Z</time>
      </trkpt>
      <trkpt lat="43.46972" lon="6.90928">
        <ele>257.29</ele>
        <time>2013-03-03T11:08:27Z</time>
      </trkpt>
      <trkpt lat="43.4697" lon="6.90926">
        <ele>257.29</ele>
        <time>2013-03-03T11:08:47Z</time>
      </trkpt>
      <trkpt lat="43.46971" lon="6.90928">
        <ele>248.16</ele>
        <time>2013-03-03T11:09:15Z</time>
      </trkpt>
      <trkpt lat="43.46971" lon="6.90928">
        <ele>262.1</ele>
        <time>2013-03-03T11:09:16Z</time>
      </trkpt>
      <trkpt lat="43.46971" lon="6.90928">
        <ele>258.73</ele>
        <time>2013-03-03T11:09:17Z</time>
      </trkpt>
      <trkpt lat="43.4697" lon="6.90924">
        <ele>257.77</ele>
        <time>2013-03-03T11:09:45Z</time>
      </trkpt>
      <trkpt lat="43.4697" lon="6.90923">
        <ele>257.77</ele>
        <time>2013-03-03T11:09:46Z</time>
      </trkpt>
      <trkpt lat="43.46983" lon="6.90909">
        <ele>259.69</ele>
        <time>2013-03-03T11:10:01Z</time>
      </trkpt>
      <trkpt lat="43.46996" lon="6.90891">
        <ele>261.14</ele>
        <time>2013-03-03T11:10:17Z</time>
      </trkpt>
      <trkpt lat="43.47007" lon="6.90872">
        <ele>262.58</ele>
        <time>2013-03-03T11:10:33Z</time>
      </trkpt>
      <trkpt lat="43.47019" lon="6.90853">
        <ele>262.1</ele>
        <time>2013-03-03T11:10:49Z</time>
      </trkpt>
      <trkpt lat="43.4703" lon="6.90831">
        <ele>262.1</ele>
        <time>2013-03-03T11:11:05Z</time>
      </trkpt>
      <trkpt lat="43.47041" lon="6.90808">
        <ele>262.1</ele>
        <time>2013-03-03T11:11:22Z</time>
      </trkpt>
      <trkpt lat="43.47046" lon="6.90792">
        <ele>261.62</ele>
        <time>2013-03-03T11:11:36Z</time>
      </trkpt>
      <trkpt lat="43.47056" lon="6.90768">
        <ele>262.58</ele>
        <time>2013-03-03T11:11:52Z</time>
      </trkpt>
      <trkpt lat="43.47067" lon="6.90742">
        <ele>262.58</ele>
        <time>2013-03-03T11:12:09Z</time>
      </trkpt>
      <trkpt lat="43.47079" lon="6.90718">
        <ele>262.58</ele>
        <time>2013-03-03T11:12:25Z</time>
      </trkpt>
      <trkpt lat="43.47083" lon="6.90711">
        <ele>263.06</ele>
        <time>2013-03-03T11:12:31Z</time>
      </trkpt>
      <trkpt lat="43.47091" lon="6.907">
        <ele>262.58</ele>
        <time>2013-03-03T11:12:44Z</time>
      </trkpt>
      <trkpt lat="43.47094" lon="6.90696">
        <ele>262.58</ele>
        <time>2013-03-03T11:12:48Z</time>
      </trkpt>
      <trkpt lat="43.47112" lon="6.90682">
        <ele>264.02</ele>
        <time>2013-03-03T11:13:04Z</time>
      </trkpt>
      <trkpt lat="43.47133" lon="6.90673">
        <ele>263.54</ele>
        <time>2013-03-03T11:13:20Z</time>
      </trkpt>
      <trkpt lat="43.47151" lon="6.90667">
        <ele>264.02</ele>
        <time>2013-03-03T11:13:34Z</time>
      </trkpt>
      <trkpt lat="43.4717" lon="6.90661">
        <ele>264.02</ele>
        <time>2013-03-03T11:13:49Z</time>
      </trkpt>
      <trkpt lat="43.47176" lon="6.90657">
        <ele>264.02</ele>
        <time>2013-03-03T11:13:54Z</time>
      </trkpt>
      <trkpt lat="43.47193" lon="6.90653">
        <ele>264.02</ele>
        <time>2013-03-03T11:14:09Z</time>
      </trkpt>
      <trkpt lat="43.47207" lon="6.90647">
        <ele>264.5</ele>
        <time>2013-03-03T11:14:21Z</time>
      </trkpt>
      <trkpt lat="43.4721" lon="6.90644">
        <ele>264.02</ele>
        <time>2013-03-03T11:14:24Z</time>
      </trkpt>
      <trkpt lat="43.47219" lon="6.90641">
        <ele>264.5</ele>
        <time>2013-03-03T11:14:32Z</time>
      </trkpt>
      <trkpt lat="43.47222" lon="6.9064">
        <ele>264.98</ele>
        <time>2013-03-03T11:14:34Z</time>
      </trkpt>
      <trkpt lat="43.47236" lon="6.90636">
        <ele>264.5</ele>
        <time>2013-03-03T11:14:45Z</time>
      </trkpt>
      <trkpt lat="43.47254" lon="6.90622">
        <ele>264.5</ele>
        <time>2013-03-03T11:15:02Z</time>
      </trkpt>
      <trkpt lat="43.47254" lon="6.90614">
        <ele>264.98</ele>
        <time>2013-03-03T11:15:08Z</time>
      </trkpt>
      <trkpt lat="43.47252" lon="6.90606">
        <ele>265.94</ele>
        <time>2013-03-03T11:15:14Z</time>
      </trkpt>
      <trkpt lat="43.47244" lon="6.90584">
        <ele>265.46</ele>
        <time>2013-03-03T11:15:27Z</time>
      </trkpt>
      <trkpt lat="43.47236" lon="6.90566">
        <ele>266.42</ele>
        <time>2013-03-03T11:15:40Z</time>
      </trkpt>
      <trkpt lat="43.47227" lon="6.90542">
        <ele>266.42</ele>
        <time>2013-03-03T11:15:56Z</time>
      </trkpt>
      <trkpt lat="43.47218" lon="6.90525">
        <ele>266.42</ele>
        <time>2013-03-03T11:16:10Z</time>
      </trkpt>
      <trkpt lat="43.4721" lon="6.90507">
        <ele>266.42</ele>
        <time>2013-03-03T11:16:23Z</time>
      </trkpt>
      <trkpt lat="43.47198" lon="6.90485">
        <ele>266.42</ele>
        <time>2013-03-03T11:16:38Z</time>
      </trkpt>
      <trkpt lat="43.47187" lon="6.90461">
        <ele>266.9</ele>
        <time>2013-03-03T11:16:54Z</time>
      </trkpt>
      <trkpt lat="43.47183" lon="6.90434">
        <ele>266.9</ele>
        <time>2013-03-03T11:17:11Z</time>
      </trkpt>
      <trkpt lat="43.47192" lon="6.90404">
        <ele>266.42</ele>
        <time>2013-03-03T11:17:30Z</time>
      </trkpt>
      <trkpt lat="43.472" lon="6.90383">
        <ele>267.38</ele>
        <time>2013-03-03T11:17:45Z</time>
      </trkpt>
      <trkpt lat="43.472" lon="6.90359">
        <ele>267.38</ele>
        <time>2013-03-03T11:18:00Z</time>
      </trkpt>
      <trkpt lat="43.47199" lon="6.90353">
        <ele>267.38</ele>
        <time>2013-03-03T11:18:12Z</time>
      </trkpt>
      <trkpt lat="43.47197" lon="6.9034">
        <ele>267.86</ele>
        <time>2013-03-03T11:18:19Z</time>
      </trkpt>
      <trkpt lat="43.47192" lon="6.90311">
        <ele>268.35</ele>
        <time>2013-03-03T11:18:37Z</time>
      </trkpt>
      <trkpt lat="43.47189" lon="6.9028">
        <ele>268.35</ele>
        <time>2013-03-03T11:18:54Z</time>
      </trkpt>
      <trkpt lat="43.47191" lon="6.90251">
        <ele>268.35</ele>
        <time>2013-03-03T11:19:12Z</time>
      </trkpt>
      <trkpt lat="43.47196" lon="6.90239">
        <ele>268.35</ele>
        <time>2013-03-03T11:19:21Z</time>
      </trkpt>
      <trkpt lat="43.47198" lon="6.90235">
        <ele>268.83</ele>
        <time>2013-03-03T11:19:24Z</time>
      </trkpt>
      <trkpt lat="43.47214" lon="6.90215">
        <ele>268.83</ele>
        <time>2013-03-03T11:19:43Z</time>
      </trkpt>
      <trkpt lat="43.47231" lon="6.90206">
        <ele>268.83</ele>
        <time>2013-03-03T11:19:57Z</time>
      </trkpt>
      <trkpt lat="43.4725" lon="6.90195">
        <ele>269.31</ele>
        <time>2013-03-03T11:20:12Z</time>
      </trkpt>
      <trkpt lat="43.47271" lon="6.90183">
        <ele>270.27</ele>
        <time>2013-03-03T11:20:30Z</time>
      </trkpt>
      <trkpt lat="43.47292" lon="6.90176">
        <ele>270.75</ele>
        <time>2013-03-03T11:20:47Z</time>
      </trkpt>
      <trkpt lat="43.47299" lon="6.9018">
        <ele>271.23</ele>
        <time>2013-03-03T11:20:53Z</time>
      </trkpt>
      <trkpt lat="43.47306" lon="6.90178">
        <ele>270.75</ele>
        <time>2013-03-03T11:20:59Z</time>
      </trkpt>
      <trkpt lat="43.47309" lon="6.90171">
        <ele>271.71</ele>
        <time>2013-03-03T11:21:05Z</time>
      </trkpt>
      <trkpt lat="43.47315" lon="6.90164">
        <ele>272.19</ele>
        <time>2013-03-03T11:21:13Z</time>
      </trkpt>
      <trkpt lat="43.47332" lon="6.90154">
        <ele>272.67</ele>
        <time>2013-03-03T11:21:28Z</time>
      </trkpt>
      <trkpt lat="43.47345" lon="6.90149">
        <ele>273.15</ele>
        <time>2013-03-03T11:21:42Z</time>
      </trkpt>
      <trkpt lat="43.47347" lon="6.9014">
        <ele>273.63</ele>
        <time>2013-03-03T11:21:50Z</time>
      </trkpt>
      <trkpt lat="43.47338" lon="6.90123">
        <ele>274.59</ele>
        <time>2013-03-03T11:22:05Z</time>
      </trkpt>
      <trkpt lat="43.47329" lon="6.90103">
        <ele>274.59</ele>
        <time>2013-03-03T11:22:20Z</time>
      </trkpt>
      <trkpt lat="43.47328" lon="6.90097">
        <ele>275.07</ele>
        <time>2013-03-03T11:22:24Z</time>
      </trkpt>
      <trkpt lat="43.47334" lon="6.90077">
        <ele>275.56</ele>
        <time>2013-03-03T11:22:37Z</time>
      </trkpt>
      <trkpt lat="43.4733" lon="6.90063">
        <ele>275.56</ele>
        <time>2013-03-03T11:22:46Z</time>
      </trkpt>
      <trkpt lat="43.47322" lon="6.90059">
        <ele>275.56</ele>
        <time>2013-03-03T11:22:54Z</time>
      </trkpt>
      <trkpt lat="43.47308" lon="6.9004">
        <ele>276.52</ele>
        <time>2013-03-03T11:23:10Z</time>
      </trkpt>
      <trkpt lat="43.47298" lon="6.90012">
        <ele>276.52</ele>
        <time>2013-03-03T11:23:27Z</time>
      </trkpt>
      <trkpt lat="43.47295" lon="6.89984">
        <ele>276.52</ele>
        <time>2013-03-03T11:23:43Z</time>
      </trkpt>
      <trkpt lat="43.47292" lon="6.89963">
        <ele>276.52</ele>
        <time>2013-03-03T11:23:56Z</time>
      </trkpt>
      <trkpt lat="43.47288" lon="6.89958">
        <ele>277</ele>
        <time>2013-03-03T11:24:01Z</time>
      </trkpt>
      <trkpt lat="43.47278" lon="6.89935">
        <ele>276.52</ele>
        <time>2013-03-03T11:24:18Z</time>
      </trkpt>
      <trkpt lat="43.47272" lon="6.8992">
        <ele>277.48</ele>
        <time>2013-03-03T11:24:29Z</time>
      </trkpt>
      <trkpt lat="43.47262" lon="6.89899">
        <ele>277.48</ele>
        <time>2013-03-03T11:24:44Z</time>
      </trkpt>
      <trkpt lat="43.4725" lon="6.89888">
        <ele>277.96</ele>
        <time>2013-03-03T11:24:57Z</time>
      </trkpt>
      <trkpt lat="43.47244" lon="6.89885">
        <ele>278.44</ele>
        <time>2013-03-03T11:25:03Z</time>
      </trkpt>
      <trkpt lat="43.47226" lon="6.89876">
        <ele>279.4</ele>
        <time>2013-03-03T11:25:19Z</time>
      </trkpt>
      <trkpt lat="43.4721" lon="6.89867">
        <ele>280.36</ele>
        <time>2013-03-03T11:25:34Z</time>
      </trkpt>
      <trkpt lat="43.47193" lon="6.89856">
        <ele>280.84</ele>
        <time>2013-03-03T11:25:51Z</time>
      </trkpt>
      <trkpt lat="43.4718" lon="6.89845">
        <ele>282.28</ele>
        <time>2013-03-03T11:26:05Z</time>
      </trkpt>
      <trkpt lat="43.47176" lon="6.89842">
        <ele>283.25</ele>
        <time>2013-03-03T11:26:19Z</time>
      </trkpt>
      <trkpt lat="43.47178" lon="6.89845">
        <ele>282.77</ele>
        <time>2013-03-03T11:26:32Z</time>
      </trkpt>
      <trkpt lat="43.47177" lon="6.89845">
        <ele>282.77</ele>
        <time>2013-03-03T11:26:44Z</time>
      </trkpt>
      <trkpt lat="43.47176" lon="6.89843">
        <ele>283.25</ele>
        <time>2013-03-03T11:26:46Z</time>
      </trkpt>
      <trkpt lat="43.47175" lon="6.89829">
        <ele>284.21</ele>
        <time>2013-03-03T11:27:03Z</time>
      </trkpt>
      <trkpt lat="43.47175" lon="6.89826">
        <ele>283.73</ele>
        <time>2013-03-03T11:27:05Z</time>
      </trkpt>
      <trkpt lat="43.47176" lon="6.89824">
        <ele>284.21</ele>
        <time>2013-03-03T11:27:07Z</time>
      </trkpt>
      <trkpt lat="43.47177" lon="6.89814">
        <ele>284.69</ele>
        <time>2013-03-03T11:27:13Z</time>
      </trkpt>
      <trkpt lat="43.47182" lon="6.89789">
        <ele>284.69</ele>
        <time>2013-03-03T11:27:30Z</time>
      </trkpt>
      <trkpt lat="43.47187" lon="6.89771">
        <ele>286.13</ele>
        <time>2013-03-03T11:27:46Z</time>
      </trkpt>
      <trkpt lat="43.47189" lon="6.89763">
        <ele>286.13</ele>
        <time>2013-03-03T11:27:57Z</time>
      </trkpt>
      <trkpt lat="43.47192" lon="6.89743">
        <ele>287.09</ele>
        <time>2013-03-03T11:28:10Z</time>
      </trkpt>
      <trkpt lat="43.47194" lon="6.89734">
        <ele>287.57</ele>
        <time>2013-03-03T11:28:17Z</time>
      </trkpt>
      <trkpt lat="43.47194" lon="6.89731">
        <ele>287.57</ele>
        <time>2013-03-03T11:28:19Z</time>
      </trkpt>
      <trkpt lat="43.472" lon="6.89709">
        <ele>289.01</ele>
        <time>2013-03-03T11:28:36Z</time>
      </trkpt>
      <trkpt lat="43.47204" lon="6.8969">
        <ele>290.46</ele>
        <time>2013-03-03T11:28:51Z</time>
      </trkpt>
      <trkpt lat="43.47207" lon="6.89681">
        <ele>291.42</ele>
        <time>2013-03-03T11:29:05Z</time>
      </trkpt>
      <trkpt lat="43.47211" lon="6.89675">
        <ele>292.38</ele>
        <time>2013-03-03T11:29:21Z</time>
      </trkpt>
      <trkpt lat="43.47219" lon="6.89664">
        <ele>294.3</ele>
        <time>2013-03-03T11:29:35Z</time>
      </trkpt>
      <trkpt lat="43.47227" lon="6.89654">
        <ele>296.22</ele>
        <time>2013-03-03T11:29:48Z</time>
      </trkpt>
      <trkpt lat="43.47232" lon="6.89647">
        <ele>297.18</ele>
        <time>2013-03-03T11:30:02Z</time>
      </trkpt>
      <trkpt lat="43.47233" lon="6.89646">
        <ele>297.67</ele>
        <time>2013-03-03T11:30:08Z</time>
      </trkpt>
      <trkpt lat="43.47234" lon="6.89645">
        <ele>297.67</ele>
        <time>2013-03-03T11:30:10Z</time>
      </trkpt>
      <trkpt lat="43.47242" lon="6.89636">
        <ele>298.63</ele>
        <time>2013-03-03T11:30:23Z</time>
      </trkpt>
      <trkpt lat="43.47247" lon="6.89631">
        <ele>299.59</ele>
        <time>2013-03-03T11:30:37Z</time>
      </trkpt>
      <trkpt lat="43.4725" lon="6.89627">
        <ele>300.07</ele>
        <time>2013-03-03T11:30:41Z</time>
      </trkpt>
      <trkpt lat="43.4726" lon="6.89616">
        <ele>302.47</ele>
        <time>2013-03-03T11:30:55Z</time>
      </trkpt>
      <trkpt lat="43.47264" lon="6.8961">
        <ele>302.95</ele>
        <time>2013-03-03T11:31:10Z</time>
      </trkpt>
      <trkpt lat="43.47274" lon="6.89601">
        <ele>304.88</ele>
        <time>2013-03-03T11:31:25Z</time>
      </trkpt>
      <trkpt lat="43.47276" lon="6.89598">
        <ele>305.36</ele>
        <time>2013-03-03T11:31:28Z</time>
      </trkpt>
      <trkpt lat="43.47278" lon="6.89595">
        <ele>304.88</ele>
        <time>2013-03-03T11:31:30Z</time>
      </trkpt>
      <trkpt lat="43.47284" lon="6.89589">
        <ele>305.84</ele>
        <time>2013-03-03T11:31:37Z</time>
      </trkpt>
      <trkpt lat="43.47288" lon="6.89582">
        <ele>306.32</ele>
        <time>2013-03-03T11:31:43Z</time>
      </trkpt>
      <trkpt lat="43.47301" lon="6.89567">
        <ele>307.76</ele>
        <time>2013-03-03T11:31:59Z</time>
      </trkpt>
      <trkpt lat="43.47309" lon="6.89555">
        <ele>308.72</ele>
        <time>2013-03-03T11:32:11Z</time>
      </trkpt>
      <trkpt lat="43.47312" lon="6.89538">
        <ele>310.16</ele>
        <time>2013-03-03T11:32:24Z</time>
      </trkpt>
      <trkpt lat="43.47311" lon="6.89528">
        <ele>310.64</ele>
        <time>2013-03-03T11:32:35Z</time>
      </trkpt>
      <trkpt lat="43.47309" lon="6.89518">
        <ele>310.16</ele>
        <time>2013-03-03T11:32:45Z</time>
      </trkpt>
      <trkpt lat="43.47309" lon="6.89517">
        <ele>310.16</ele>
        <time>2013-03-03T11:32:46Z</time>
      </trkpt>
      <trkpt lat="43.47311" lon="6.89506">
        <ele>310.64</ele>
        <time>2013-03-03T11:32:57Z</time>
      </trkpt>
      <trkpt lat="43.47311" lon="6.89505">
        <ele>311.12</ele>
        <time>2013-03-03T11:33:11Z</time>
      </trkpt>
      <trkpt lat="43.47312" lon="6.89503">
        <ele>309.68</ele>
        <time>2013-03-03T11:33:23Z</time>
      </trkpt>
      <trkpt lat="43.47311" lon="6.89505">
        <ele>310.16</ele>
        <time>2013-03-03T11:33:48Z</time>
      </trkpt>
      <trkpt lat="43.47311" lon="6.89504">
        <ele>310.64</ele>
        <time>2013-03-03T11:34:16Z</time>
      </trkpt>
      <trkpt lat="43.47309" lon="6.89505">
        <ele>310.64</ele>
        <time>2013-03-03T11:34:50Z</time>
      </trkpt>
      <trkpt lat="43.4731" lon="6.89504">
        <ele>310.64</ele>
        <time>2013-03-03T11:35:22Z</time>
      </trkpt>
      <trkpt lat="43.47311" lon="6.89506">
        <ele>310.64</ele>
        <time>2013-03-03T11:35:40Z</time>
      </trkpt>
      <trkpt lat="43.4731" lon="6.89503">
        <ele>310.16</ele>
        <time>2013-03-03T11:36:06Z</time>
      </trkpt>
      <trkpt lat="43.47309" lon="6.895">
        <ele>310.64</ele>
        <time>2013-03-03T11:36:24Z</time>
      </trkpt>
      <trkpt lat="43.47309" lon="6.89503">
        <ele>311.12</ele>
        <time>2013-03-03T11:36:59Z</time>
      </trkpt>
      <trkpt lat="43.47309" lon="6.89499">
        <ele>311.12</ele>
        <time>2013-03-03T11:37:30Z</time>
      </trkpt>
      <trkpt lat="43.4731" lon="6.89497">
        <ele>310.64</ele>
        <time>2013-03-03T11:38:00Z</time>
      </trkpt>
      <trkpt lat="43.47308" lon="6.89489">
        <ele>311.12</ele>
        <time>2013-03-03T11:38:31Z</time>
      </trkpt>
      <trkpt lat="43.4731" lon="6.89498">
        <ele>311.12</ele>
        <time>2013-03-03T11:38:59Z</time>
      </trkpt>
      <trkpt lat="43.47312" lon="6.89501">
        <ele>311.12</ele>
        <time>2013-03-03T11:39:18Z</time>
      </trkpt>
      <trkpt lat="43.47312" lon="6.89503">
        <ele>311.12</ele>
        <time>2013-03-03T11:39:34Z</time>
      </trkpt>
      <trkpt lat="43.47312" lon="6.89501">
        <ele>310.64</ele>
        <time>2013-03-03T11:39:59Z</time>
      </trkpt>
      <trkpt lat="43.47311" lon="6.89502">
        <ele>311.12</ele>
        <time>2013-03-03T11:40:25Z</time>
      </trkpt>
      <trkpt lat="43.47312" lon="6.89501">
        <ele>310.64</ele>
        <time>2013-03-03T11:40:53Z</time>
      </trkpt>
      <trkpt lat="43.47311" lon="6.895">
        <ele>311.12</ele>
        <time>2013-03-03T11:41:28Z</time>
      </trkpt>
      <trkpt lat="43.47313" lon="6.89504">
        <ele>311.12</ele>
        <time>2013-03-03T11:41:49Z</time>
      </trkpt>
      <trkpt lat="43.47314" lon="6.89504">
        <ele>310.64</ele>
        <time>2013-03-03T11:42:40Z</time>
      </trkpt>
      <trkpt lat="43.47314" lon="6.89504">
        <ele>311.12</ele>
        <time>2013-03-03T11:43:21Z</time>
      </trkpt>
      <trkpt lat="43.47313" lon="6.89504">
        <ele>310.64</ele>
        <time>2013-03-03T11:44:09Z</time>
      </trkpt>
      <trkpt lat="43.47313" lon="6.89504">
        <ele>310.64</ele>
        <time>2013-03-03T11:44:54Z</time>
      </trkpt>
      <trkpt lat="43.47313" lon="6.89504">
        <ele>310.64</ele>
        <time>2013-03-03T11:45:38Z</time>
      </trkpt>
      <trkpt lat="43.47313" lon="6.89504">
        <ele>310.64</ele>
        <time>2013-03-03T11:46:18Z</time>
      </trkpt>
      <trkpt lat="43.47313" lon="6.89504">
        <ele>310.16</ele>
        <time>2013-03-03T11:46:56Z</time>
      </trkpt>
      <trkpt lat="43.47313" lon="6.89504">
        <ele>310.64</ele>
        <time>2013-03-03T11:47:26Z</time>
      </trkpt>
      <trkpt lat="43.47313" lon="6.89504">
        <ele>310.16</ele>
        <time>2013-03-03T11:48:06Z</time>
      </trkpt>
      <trkpt lat="43.47313" lon="6.89505">
        <ele>310.64</ele>
        <time>2013-03-03T11:48:44Z</time>
      </trkpt>
      <trkpt lat="43.47312" lon="6.89503">
        <ele>310.16</ele>
        <time>2013-03-03T11:49:19Z</time>
      </trkpt>
      <trkpt lat="43.47313" lon="6.89506">
        <ele>310.64</ele>
        <time>2013-03-03T11:50:03Z</time>
      </trkpt>
      <trkpt lat="43.47313" lon="6.89506">
        <ele>310.64</ele>
        <time>2013-03-03T11:50:45Z</time>
      </trkpt>
      <trkpt lat="43.47313" lon="6.89505">
        <ele>310.16</ele>
        <time>2013-03-03T11:51:20Z</time>
      </trkpt>
      <trkpt lat="43.47312" lon="6.89504">
        <ele>310.16</ele>
        <time>2013-03-03T11:51:59Z</time>
      </trkpt>
      <trkpt lat="43.47312" lon="6.89502">
        <ele>310.16</ele>
        <time>2013-03-03T11:52:28Z</time>
      </trkpt>
      <trkpt lat="43.47312" lon="6.89503">
        <ele>311.12</ele>
        <time>2013-03-03T11:52:53Z</time>
      </trkpt>
      <trkpt lat="43.4731" lon="6.89502">
        <ele>310.16</ele>
        <time>2013-03-03T11:53:22Z</time>
      </trkpt>
      <trkpt lat="43.47312" lon="6.89502">
        <ele>310.16</ele>
        <time>2013-03-03T11:54:00Z</time>
      </trkpt>
      <trkpt lat="43.47311" lon="6.89503">
        <ele>310.16</ele>
        <time>2013-03-03T11:54:28Z</time>
      </trkpt>
      <trkpt lat="43.47311" lon="6.89506">
        <ele>309.68</ele>
        <time>2013-03-03T11:54:57Z</time>
      </trkpt>
      <trkpt lat="43.47312" lon="6.89503">
        <ele>310.16</ele>
        <time>2013-03-03T11:55:30Z</time>
      </trkpt>
      <trkpt lat="43.47312" lon="6.89504">
        <ele>309.68</ele>
        <time>2013-03-03T11:56:13Z</time>
      </trkpt>
      <trkpt lat="43.47312" lon="6.89502">
        <ele>309.68</ele>
        <time>2013-03-03T11:56:48Z</time>
      </trkpt>
      <trkpt lat="43.47311" lon="6.89502">
        <ele>309.68</ele>
        <time>2013-03-03T11:57:25Z</time>
      </trkpt>
      <trkpt lat="43.47312" lon="6.89503">
        <ele>309.68</ele>
        <time>2013-03-03T11:57:59Z</time>
      </trkpt>
      <trkpt lat="43.47311" lon="6.89502">
        <ele>310.16</ele>
        <time>2013-03-03T11:58:37Z</time>
      </trkpt>
      <trkpt lat="43.47312" lon="6.89503">
        <ele>309.68</ele>
        <time>2013-03-03T11:59:12Z</time>
      </trkpt>
      <trkpt lat="43.47312" lon="6.89502">
        <ele>309.68</ele>
        <time>2013-03-03T11:59:44Z</time>
      </trkpt>
      <trkpt lat="43.47312" lon="6.89502">
        <ele>309.68</ele>
        <time>2013-03-03T12:00:12Z</time>
      </trkpt>
      <trkpt lat="43.47313" lon="6.89504">
        <ele>310.16</ele>
        <time>2013-03-03T12:00:42Z</time>
      </trkpt>
      <trkpt lat="43.47311" lon="6.89502">
        <ele>309.2</ele>
        <time>2013-03-03T12:01:09Z</time>
      </trkpt>
      <trkpt lat="43.47312" lon="6.89501">
        <ele>309.68</ele>
        <time>2013-03-03T12:01:36Z</time>
      </trkpt>
      <trkpt lat="43.47313" lon="6.89503">
        <ele>309.68</ele>
        <time>2013-03-03T12:02:01Z</time>
      </trkpt>
      <trkpt lat="43.47312" lon="6.89504">
        <ele>309.2</ele>
        <time>2013-03-03T12:02:36Z</time>
      </trkpt>
      <trkpt lat="43.47311" lon="6.89504">
        <ele>310.64</ele>
        <time>2013-03-03T12:02:48Z</time>
      </trkpt>
      <trkpt lat="43.47311" lon="6.89504">
        <ele>310.64</ele>
        <time>2013-03-03T12:03:18Z</time>
      </trkpt>
      <trkpt lat="43.47313" lon="6.89503">
        <ele>310.64</ele>
        <time>2013-03-03T12:03:40Z</time>
      </trkpt>
      <trkpt lat="43.47311" lon="6.895">
        <ele>310.64</ele>
        <time>2013-03-03T12:04:03Z</time>
      </trkpt>
      <trkpt lat="43.47312" lon="6.895">
        <ele>310.64</ele>
        <time>2013-03-03T12:04:19Z</time>
      </trkpt>
      <trkpt lat="43.47311" lon="6.89506">
        <ele>310.16</ele>
        <time>2013-03-03T12:04:33Z</time>
      </trkpt>
      <trkpt lat="43.47313" lon="6.8951">
        <ele>310.16</ele>
        <time>2013-03-03T12:04:52Z</time>
      </trkpt>
      <trkpt lat="43.47311" lon="6.89519">
        <ele>310.16</ele>
        <time>2013-03-03T12:05:04Z</time>
      </trkpt>
      <trkpt lat="43.47313" lon="6.89527">
        <ele>309.68</ele>
        <time>2013-03-03T12:05:15Z</time>
      </trkpt>
      <trkpt lat="43.47308" lon="6.89526">
        <ele>309.2</ele>
        <time>2013-03-03T12:05:29Z</time>
      </trkpt>
      <trkpt lat="43.47313" lon="6.8953">
        <ele>309.68</ele>
        <time>2013-03-03T12:05:42Z</time>
      </trkpt>
      <trkpt lat="43.47314" lon="6.89532">
        <ele>310.64</ele>
        <time>2013-03-03T12:05:45Z</time>
      </trkpt>
      <trkpt lat="43.47325" lon="6.8954">
        <ele>309.68</ele>
        <time>2013-03-03T12:06:00Z</time>
      </trkpt>
      <trkpt lat="43.47331" lon="6.89552">
        <ele>308.24</ele>
        <time>2013-03-03T12:06:11Z</time>
      </trkpt>
      <trkpt lat="43.47339" lon="6.89573">
        <ele>305.36</ele>
        <time>2013-03-03T12:06:27Z</time>
      </trkpt>
      <trkpt lat="43.47345" lon="6.89588">
        <ele>304.39</ele>
        <time>2013-03-03T12:06:38Z</time>
      </trkpt>
      <trkpt lat="43.47357" lon="6.89605">
        <ele>301.51</ele>
        <time>2013-03-03T12:06:53Z</time>
      </trkpt>
      <trkpt lat="43.47366" lon="6.89616">
        <ele>301.03</ele>
        <time>2013-03-03T12:07:02Z</time>
      </trkpt>
      <trkpt lat="43.47371" lon="6.89621">
        <ele>300.07</ele>
        <time>2013-03-03T12:07:19Z</time>
      </trkpt>
      <trkpt lat="43.47371" lon="6.89624">
        <ele>300.07</ele>
        <time>2013-03-03T12:07:42Z</time>
      </trkpt>
      <trkpt lat="43.47384" lon="6.89627">
        <ele>299.59</ele>
        <time>2013-03-03T12:07:56Z</time>
      </trkpt>
      <trkpt lat="43.47391" lon="6.89624">
        <ele>298.63</ele>
        <time>2013-03-03T12:08:04Z</time>
      </trkpt>
      <trkpt lat="43.47407" lon="6.89621">
        <ele>295.74</ele>
        <time>2013-03-03T12:08:19Z</time>
      </trkpt>
      <trkpt lat="43.47412" lon="6.89617">
        <ele>295.26</ele>
        <time>2013-03-03T12:08:25Z</time>
      </trkpt>
      <trkpt lat="43.4742" lon="6.89612">
        <ele>296.22</ele>
        <time>2013-03-03T12:08:38Z</time>
      </trkpt>
      <trkpt lat="43.47432" lon="6.89608">
        <ele>297.67</ele>
        <time>2013-03-03T12:08:51Z</time>
      </trkpt>
      <trkpt lat="43.47445" lon="6.89608">
        <ele>299.59</ele>
        <time>2013-03-03T12:09:05Z</time>
      </trkpt>
      <trkpt lat="43.47449" lon="6.89609">
        <ele>300.07</ele>
        <time>2013-03-03T12:09:10Z</time>
      </trkpt>
      <trkpt lat="43.47462" lon="6.89605">
        <ele>301.03</ele>
        <time>2013-03-03T12:09:23Z</time>
      </trkpt>
      <trkpt lat="43.47469" lon="6.896">
        <ele>302.47</ele>
        <time>2013-03-03T12:09:32Z</time>
      </trkpt>
      <trkpt lat="43.47479" lon="6.89593">
        <ele>304.88</ele>
        <time>2013-03-03T12:09:47Z</time>
      </trkpt>
      <trkpt lat="43.47486" lon="6.89592">
        <ele>305.84</ele>
        <time>2013-03-03T12:09:59Z</time>
      </trkpt>
      <trkpt lat="43.47496" lon="6.89588">
        <ele>306.8</ele>
        <time>2013-03-03T12:10:10Z</time>
      </trkpt>
      <trkpt lat="43.47506" lon="6.8958">
        <ele>308.24</ele>
        <time>2013-03-03T12:10:23Z</time>
      </trkpt>
      <trkpt lat="43.47513" lon="6.89574">
        <ele>309.68</ele>
        <time>2013-03-03T12:10:38Z</time>
      </trkpt>
      <trkpt lat="43.47524" lon="6.89566">
        <ele>311.6</ele>
        <time>2013-03-03T12:10:51Z</time>
      </trkpt>
      <trkpt lat="43.47532" lon="6.89563">
        <ele>312.57</ele>
        <time>2013-03-03T12:11:05Z</time>
      </trkpt>
      <trkpt lat="43.47538" lon="6.89558">
        <ele>314.01</ele>
        <time>2013-03-03T12:11:17Z</time>
      </trkpt>
      <trkpt lat="43.47548" lon="6.89548">
        <ele>315.45</ele>
        <time>2013-03-03T12:11:32Z</time>
      </trkpt>
      <trkpt lat="43.47554" lon="6.8954">
        <ele>316.41</ele>
        <time>2013-03-03T12:11:42Z</time>
      </trkpt>
      <trkpt lat="43.47564" lon="6.89527">
        <ele>318.81</ele>
        <time>2013-03-03T12:11:57Z</time>
      </trkpt>
      <trkpt lat="43.47566" lon="6.89525">
        <ele>319.3</ele>
        <time>2013-03-03T12:12:09Z</time>
      </trkpt>
      <trkpt lat="43.47563" lon="6.89538">
        <ele>321.22</ele>
        <time>2013-03-03T12:12:23Z</time>
      </trkpt>
      <trkpt lat="43.47559" lon="6.89553">
        <ele>323.62</ele>
        <time>2013-03-03T12:12:37Z</time>
      </trkpt>
      <trkpt lat="43.47558" lon="6.89556">
        <ele>323.62</ele>
        <time>2013-03-03T12:12:39Z</time>
      </trkpt>
      <trkpt lat="43.47555" lon="6.89573">
        <ele>326.02</ele>
        <time>2013-03-03T12:12:55Z</time>
      </trkpt>
      <trkpt lat="43.47549" lon="6.89589">
        <ele>326.99</ele>
        <time>2013-03-03T12:13:09Z</time>
      </trkpt>
      <trkpt lat="43.47542" lon="6.89603">
        <ele>329.87</ele>
        <time>2013-03-03T12:13:24Z</time>
      </trkpt>
      <trkpt lat="43.47536" lon="6.89614">
        <ele>331.79</ele>
        <time>2013-03-03T12:13:37Z</time>
      </trkpt>
      <trkpt lat="43.4753" lon="6.89628">
        <ele>333.71</ele>
        <time>2013-03-03T12:13:52Z</time>
      </trkpt>
      <trkpt lat="43.47523" lon="6.89642">
        <ele>335.16</ele>
        <time>2013-03-03T12:14:07Z</time>
      </trkpt>
      <trkpt lat="43.47517" lon="6.89655">
        <ele>337.56</ele>
        <time>2013-03-03T12:14:21Z</time>
      </trkpt>
      <trkpt lat="43.47511" lon="6.89662">
        <ele>338.52</ele>
        <time>2013-03-03T12:14:33Z</time>
      </trkpt>
      <trkpt lat="43.47509" lon="6.89669">
        <ele>339.96</ele>
        <time>2013-03-03T12:14:49Z</time>
      </trkpt>
      <trkpt lat="43.47502" lon="6.89676">
        <ele>341.89</ele>
        <time>2013-03-03T12:15:00Z</time>
      </trkpt>
      <trkpt lat="43.47494" lon="6.89685">
        <ele>343.33</ele>
        <time>2013-03-03T12:15:13Z</time>
      </trkpt>
      <trkpt lat="43.4749" lon="6.89692">
        <ele>344.29</ele>
        <time>2013-03-03T12:15:25Z</time>
      </trkpt>
      <trkpt lat="43.47499" lon="6.89689">
        <ele>345.73</ele>
        <time>2013-03-03T12:15:39Z</time>
      </trkpt>
      <trkpt lat="43.47509" lon="6.8969">
        <ele>348.62</ele>
        <time>2013-03-03T12:15:53Z</time>
      </trkpt>
      <trkpt lat="43.47518" lon="6.89691">
        <ele>349.58</ele>
        <time>2013-03-03T12:16:06Z</time>
      </trkpt>
      <trkpt lat="43.47529" lon="6.89686">
        <ele>351.98</ele>
        <time>2013-03-03T12:16:21Z</time>
      </trkpt>
      <trkpt lat="43.47539" lon="6.89684">
        <ele>353.42</ele>
        <time>2013-03-03T12:16:34Z</time>
      </trkpt>
      <trkpt lat="43.47545" lon="6.89677">
        <ele>354.38</ele>
        <time>2013-03-03T12:16:50Z</time>
      </trkpt>
      <trkpt lat="43.4755" lon="6.89675">
        <ele>356.31</ele>
        <time>2013-03-03T12:17:04Z</time>
      </trkpt>
      <trkpt lat="43.47553" lon="6.89673">
        <ele>356.79</ele>
        <time>2013-03-03T12:17:08Z</time>
      </trkpt>
      <trkpt lat="43.47562" lon="6.89666">
        <ele>358.23</ele>
        <time>2013-03-03T12:17:24Z</time>
      </trkpt>
      <trkpt lat="43.47571" lon="6.8966">
        <ele>360.15</ele>
        <time>2013-03-03T12:17:38Z</time>
      </trkpt>
      <trkpt lat="43.47577" lon="6.89655">
        <ele>361.11</ele>
        <time>2013-03-03T12:17:50Z</time>
      </trkpt>
      <trkpt lat="43.47588" lon="6.8965">
        <ele>363.04</ele>
        <time>2013-03-03T12:18:05Z</time>
      </trkpt>
      <trkpt lat="43.476" lon="6.89645">
        <ele>364.96</ele>
        <time>2013-03-03T12:18:19Z</time>
      </trkpt>
      <trkpt lat="43.47611" lon="6.89637">
        <ele>365.92</ele>
        <time>2013-03-03T12:18:34Z</time>
      </trkpt>
      <trkpt lat="43.47621" lon="6.89631">
        <ele>366.88</ele>
        <time>2013-03-03T12:18:48Z</time>
      </trkpt>
      <trkpt lat="43.47626" lon="6.89626">
        <ele>367.36</ele>
        <time>2013-03-03T12:19:01Z</time>
      </trkpt>
      <trkpt lat="43.47629" lon="6.8962">
        <ele>368.8</ele>
        <time>2013-03-03T12:19:15Z</time>
      </trkpt>
      <trkpt lat="43.47629" lon="6.89622">
        <ele>368.8</ele>
        <time>2013-03-03T12:19:30Z</time>
      </trkpt>
      <trkpt lat="43.47629" lon="6.89616">
        <ele>368.32</ele>
        <time>2013-03-03T12:19:49Z</time>
      </trkpt>
      <trkpt lat="43.4763" lon="6.89616">
        <ele>367.84</ele>
        <time>2013-03-03T12:20:19Z</time>
      </trkpt>
      <trkpt lat="43.47629" lon="6.89615">
        <ele>367.84</ele>
        <time>2013-03-03T12:20:42Z</time>
      </trkpt>
      <trkpt lat="43.4763" lon="6.89612">
        <ele>367.84</ele>
        <time>2013-03-03T12:21:18Z</time>
      </trkpt>
      <trkpt lat="43.4763" lon="6.89613">
        <ele>367.84</ele>
        <time>2013-03-03T12:21:51Z</time>
      </trkpt>
      <trkpt lat="43.47629" lon="6.89615">
        <ele>367.84</ele>
        <time>2013-03-03T12:22:16Z</time>
      </trkpt>
      <trkpt lat="43.4763" lon="6.89615">
        <ele>368.32</ele>
        <time>2013-03-03T12:22:48Z</time>
      </trkpt>
      <trkpt lat="43.47628" lon="6.89618">
        <ele>367.84</ele>
        <time>2013-03-03T12:23:19Z</time>
      </trkpt>
      <trkpt lat="43.4763" lon="6.89619">
        <ele>368.8</ele>
        <time>2013-03-03T12:23:35Z</time>
      </trkpt>
      <trkpt lat="43.47629" lon="6.89619">
        <ele>368.8</ele>
        <time>2013-03-03T12:23:54Z</time>
      </trkpt>
      <trkpt lat="43.47628" lon="6.89621">
        <ele>368.32</ele>
        <time>2013-03-03T12:24:10Z</time>
      </trkpt>
      <trkpt lat="43.47627" lon="6.89622">
        <ele>367.36</ele>
        <time>2013-03-03T12:24:12Z</time>
      </trkpt>
      <trkpt lat="43.47623" lon="6.89635">
        <ele>365.92</ele>
        <time>2013-03-03T12:24:26Z</time>
      </trkpt>
      <trkpt lat="43.47622" lon="6.89637">
        <ele>365.92</ele>
        <time>2013-03-03T12:24:27Z</time>
      </trkpt>
      <trkpt lat="43.47622" lon="6.89639">
        <ele>365.44</ele>
        <time>2013-03-03T12:24:29Z</time>
      </trkpt>
      <trkpt lat="43.4762" lon="6.89649">
        <ele>364.96</ele>
        <time>2013-03-03T12:24:40Z</time>
      </trkpt>
      <trkpt lat="43.47622" lon="6.89667">
        <ele>363.52</ele>
        <time>2013-03-03T12:24:56Z</time>
      </trkpt>
      <trkpt lat="43.47622" lon="6.89673">
        <ele>363.04</ele>
        <time>2013-03-03T12:25:01Z</time>
      </trkpt>
      <trkpt lat="43.47621" lon="6.89688">
        <ele>363.04</ele>
        <time>2013-03-03T12:25:12Z</time>
      </trkpt>
      <trkpt lat="43.4762" lon="6.89712">
        <ele>364</ele>
        <time>2013-03-03T12:25:29Z</time>
      </trkpt>
      <trkpt lat="43.47616" lon="6.89724">
        <ele>364.48</ele>
        <time>2013-03-03T12:25:38Z</time>
      </trkpt>
      <trkpt lat="43.47615" lon="6.89728">
        <ele>364</ele>
        <time>2013-03-03T12:25:41Z</time>
      </trkpt>
      <trkpt lat="43.47614" lon="6.89731">
        <ele>363.52</ele>
        <time>2013-03-03T12:25:43Z</time>
      </trkpt>
      <trkpt lat="43.47612" lon="6.8974">
        <ele>363.04</ele>
        <time>2013-03-03T12:26:01Z</time>
      </trkpt>
      <trkpt lat="43.4761" lon="6.89755">
        <ele>362.07</ele>
        <time>2013-03-03T12:26:14Z</time>
      </trkpt>
      <trkpt lat="43.47611" lon="6.89763">
        <ele>361.11</ele>
        <time>2013-03-03T12:26:20Z</time>
      </trkpt>
      <trkpt lat="43.47613" lon="6.89769">
        <ele>359.67</ele>
        <time>2013-03-03T12:26:28Z</time>
      </trkpt>
      <trkpt lat="43.47614" lon="6.89773">
        <ele>360.15</ele>
        <time>2013-03-03T12:26:31Z</time>
      </trkpt>
      <trkpt lat="43.47622" lon="6.89799">
        <ele>360.15</ele>
        <time>2013-03-03T12:26:48Z</time>
      </trkpt>
      <trkpt lat="43.47625" lon="6.89805">
        <ele>360.15</ele>
        <time>2013-03-03T12:26:52Z</time>
      </trkpt>
      <trkpt lat="43.47623" lon="6.89836">
        <ele>359.67</ele>
        <time>2013-03-03T12:27:07Z</time>
      </trkpt>
      <trkpt lat="43.4762" lon="6.89861">
        <ele>359.67</ele>
        <time>2013-03-03T12:27:22Z</time>
      </trkpt>
      <trkpt lat="43.47619" lon="6.89879">
        <ele>360.15</ele>
        <time>2013-03-03T12:27:30Z</time>
      </trkpt>
      <trkpt lat="43.47616" lon="6.89903">
        <ele>359.67</ele>
        <time>2013-03-03T12:27:45Z</time>
      </trkpt>
      <trkpt lat="43.47613" lon="6.89919">
        <ele>360.15</ele>
        <time>2013-03-03T12:27:58Z</time>
      </trkpt>
      <trkpt lat="43.47612" lon="6.89924">
        <ele>359.67</ele>
        <time>2013-03-03T12:28:03Z</time>
      </trkpt>
      <trkpt lat="43.4761" lon="6.89932">
        <ele>360.63</ele>
        <time>2013-03-03T12:28:08Z</time>
      </trkpt>
      <trkpt lat="43.4761" lon="6.89951">
        <ele>359.67</ele>
        <time>2013-03-03T12:28:18Z</time>
      </trkpt>
      <trkpt lat="43.47611" lon="6.89966">
        <ele>359.67</ele>
        <time>2013-03-03T12:28:24Z</time>
      </trkpt>
      <trkpt lat="43.47618" lon="6.89995">
        <ele>359.67</ele>
        <time>2013-03-03T12:28:38Z</time>
      </trkpt>
      <trkpt lat="43.47625" lon="6.90021">
        <ele>359.67</ele>
        <time>2013-03-03T12:28:51Z</time>
      </trkpt>
      <trkpt lat="43.47629" lon="6.90034">
        <ele>359.67</ele>
        <time>2013-03-03T12:29:06Z</time>
      </trkpt>
      <trkpt lat="43.47634" lon="6.9004">
        <ele>359.19</ele>
        <time>2013-03-03T12:29:38Z</time>
      </trkpt>
      <trkpt lat="43.47635" lon="6.90041">
        <ele>358.71</ele>
        <time>2013-03-03T12:29:39Z</time>
      </trkpt>
      <trkpt lat="43.47641" lon="6.90063">
        <ele>359.19</ele>
        <time>2013-03-03T12:29:55Z</time>
      </trkpt>
      <trkpt lat="43.47649" lon="6.90083">
        <ele>359.67</ele>
        <time>2013-03-03T12:30:12Z</time>
      </trkpt>
      <trkpt lat="43.47655" lon="6.90095">
        <ele>362.07</ele>
        <time>2013-03-03T12:30:26Z</time>
      </trkpt>
      <trkpt lat="43.47658" lon="6.90109">
        <ele>364</ele>
        <time>2013-03-03T12:30:38Z</time>
      </trkpt>
      <trkpt lat="43.47665" lon="6.90119">
        <ele>364.96</ele>
        <time>2013-03-03T12:30:54Z</time>
      </trkpt>
      <trkpt lat="43.47675" lon="6.90131">
        <ele>366.88</ele>
        <time>2013-03-03T12:31:09Z</time>
      </trkpt>
      <trkpt lat="43.47682" lon="6.90143">
        <ele>367.84</ele>
        <time>2013-03-03T12:31:20Z</time>
      </trkpt>
      <trkpt lat="43.47691" lon="6.90155">
        <ele>370.73</ele>
        <time>2013-03-03T12:31:36Z</time>
      </trkpt>
      <trkpt lat="43.477" lon="6.90168">
        <ele>372.17</ele>
        <time>2013-03-03T12:31:49Z</time>
      </trkpt>
      <trkpt lat="43.47704" lon="6.90177">
        <ele>372.65</ele>
        <time>2013-03-03T12:32:00Z</time>
      </trkpt>
      <trkpt lat="43.47704" lon="6.90181">
        <ele>372.65</ele>
        <time>2013-03-03T12:32:27Z</time>
      </trkpt>
      <trkpt lat="43.47705" lon="6.90186">
        <ele>373.13</ele>
        <time>2013-03-03T12:32:32Z</time>
      </trkpt>
      <trkpt lat="43.47706" lon="6.90192">
        <ele>374.09</ele>
        <time>2013-03-03T12:32:38Z</time>
      </trkpt>
      <trkpt lat="43.47704" lon="6.90205">
        <ele>375.53</ele>
        <time>2013-03-03T12:32:51Z</time>
      </trkpt>
      <trkpt lat="43.47705" lon="6.90221">
        <ele>376.97</ele>
        <time>2013-03-03T12:33:06Z</time>
      </trkpt>
      <trkpt lat="43.4771" lon="6.90239">
        <ele>377.94</ele>
        <time>2013-03-03T12:33:22Z</time>
      </trkpt>
      <trkpt lat="43.47712" lon="6.90242">
        <ele>377.94</ele>
        <time>2013-03-03T12:33:25Z</time>
      </trkpt>
      <trkpt lat="43.47721" lon="6.90259">
        <ele>379.86</ele>
        <time>2013-03-03T12:33:41Z</time>
      </trkpt>
      <trkpt lat="43.47723" lon="6.90261">
        <ele>378.9</ele>
        <time>2013-03-03T12:33:43Z</time>
      </trkpt>
      <trkpt lat="43.47731" lon="6.90273">
        <ele>380.82</ele>
        <time>2013-03-03T12:33:56Z</time>
      </trkpt>
      <trkpt lat="43.47742" lon="6.90285">
        <ele>381.3</ele>
        <time>2013-03-03T12:34:11Z</time>
      </trkpt>
      <trkpt lat="43.47748" lon="6.90289">
        <ele>381.3</ele>
        <time>2013-03-03T12:34:28Z</time>
      </trkpt>
      <trkpt lat="43.4776" lon="6.9029">
        <ele>382.74</ele>
        <time>2013-03-03T12:34:40Z</time>
      </trkpt>
      <trkpt lat="43.47765" lon="6.90289">
        <ele>382.74</ele>
        <time>2013-03-03T12:34:45Z</time>
      </trkpt>
      <trkpt lat="43.47775" lon="6.90285">
        <ele>383.7</ele>
        <time>2013-03-03T12:34:57Z</time>
      </trkpt>
      <trkpt lat="43.47784" lon="6.90287">
        <ele>384.18</ele>
        <time>2013-03-03T12:35:05Z</time>
      </trkpt>
      <trkpt lat="43.47786" lon="6.90288">
        <ele>384.18</ele>
        <time>2013-03-03T12:35:07Z</time>
      </trkpt>
      <trkpt lat="43.478" lon="6.90288">
        <ele>384.66</ele>
        <time>2013-03-03T12:35:20Z</time>
      </trkpt>
      <trkpt lat="43.478" lon="6.90288">
        <ele>385.15</ele>
        <time>2013-03-03T12:35:21Z</time>
      </trkpt>
      <trkpt lat="43.47819" lon="6.90286">
        <ele>386.11</ele>
        <time>2013-03-03T12:35:35Z</time>
      </trkpt>
      <trkpt lat="43.4784" lon="6.90284">
        <ele>387.55</ele>
        <time>2013-03-03T12:35:52Z</time>
      </trkpt>
      <trkpt lat="43.47841" lon="6.90285">
        <ele>387.55</ele>
        <time>2013-03-03T12:35:53Z</time>
      </trkpt>
      <trkpt lat="43.4786" lon="6.90294">
        <ele>388.51</ele>
        <time>2013-03-03T12:36:08Z</time>
      </trkpt>
      <trkpt lat="43.47864" lon="6.90296">
        <ele>388.51</ele>
        <time>2013-03-03T12:36:12Z</time>
      </trkpt>
      <trkpt lat="43.47879" lon="6.90303">
        <ele>390.43</ele>
        <time>2013-03-03T12:36:25Z</time>
      </trkpt>
      <trkpt lat="43.4789" lon="6.90308">
        <ele>390.43</ele>
        <time>2013-03-03T12:36:37Z</time>
      </trkpt>
      <trkpt lat="43.47898" lon="6.9031">
        <ele>390.91</ele>
        <time>2013-03-03T12:36:52Z</time>
      </trkpt>
      <trkpt lat="43.47914" lon="6.90314">
        <ele>393.32</ele>
        <time>2013-03-03T12:37:07Z</time>
      </trkpt>
      <trkpt lat="43.47924" lon="6.90319">
        <ele>394.28</ele>
        <time>2013-03-03T12:37:20Z</time>
      </trkpt>
      <trkpt lat="43.47923" lon="6.90328">
        <ele>396.68</ele>
        <time>2013-03-03T12:37:33Z</time>
      </trkpt>
      <trkpt lat="43.4792" lon="6.90331">
        <ele>398.12</ele>
        <time>2013-03-03T12:37:47Z</time>
      </trkpt>
      <trkpt lat="43.47919" lon="6.90334">
        <ele>398.12</ele>
        <time>2013-03-03T12:38:25Z</time>
      </trkpt>
      <trkpt lat="43.4792" lon="6.90332">
        <ele>398.6</ele>
        <time>2013-03-03T12:38:36Z</time>
      </trkpt>
      <trkpt lat="43.47919" lon="6.90331">
        <ele>398.12</ele>
        <time>2013-03-03T12:38:51Z</time>
      </trkpt>
      <trkpt lat="43.47919" lon="6.9033">
        <ele>398.6</ele>
        <time>2013-03-03T12:39:15Z</time>
      </trkpt>
      <trkpt lat="43.47921" lon="6.9033">
        <ele>398.6</ele>
        <time>2013-03-03T12:39:40Z</time>
      </trkpt>
      <trkpt lat="43.4792" lon="6.9033">
        <ele>398.6</ele>
        <time>2013-03-03T12:39:42Z</time>
      </trkpt>
      <trkpt lat="43.47917" lon="6.90329">
        <ele>398.6</ele>
        <time>2013-03-03T12:39:59Z</time>
      </trkpt>
      <trkpt lat="43.47916" lon="6.90328">
        <ele>398.6</ele>
        <time>2013-03-03T12:40:30Z</time>
      </trkpt>
      <trkpt lat="43.47919" lon="6.90331">
        <ele>398.12</ele>
        <time>2013-03-03T12:40:45Z</time>
      </trkpt>
      <trkpt lat="43.47927" lon="6.90333">
        <ele>396.2</ele>
        <time>2013-03-03T12:40:55Z</time>
      </trkpt>
      <trkpt lat="43.4793" lon="6.90333">
        <ele>394.76</ele>
        <time>2013-03-03T12:40:59Z</time>
      </trkpt>
      <trkpt lat="43.47933" lon="6.90337">
        <ele>393.8</ele>
        <time>2013-03-03T12:41:06Z</time>
      </trkpt>
      <trkpt lat="43.47928" lon="6.90342">
        <ele>393.32</ele>
        <time>2013-03-03T12:41:22Z</time>
      </trkpt>
      <trkpt lat="43.47923" lon="6.90342">
        <ele>394.28</ele>
        <time>2013-03-03T12:41:38Z</time>
      </trkpt>
      <trkpt lat="43.47909" lon="6.90343">
        <ele>396.68</ele>
        <time>2013-03-03T12:41:53Z</time>
      </trkpt>
      <trkpt lat="43.47897" lon="6.90347">
        <ele>398.12</ele>
        <time>2013-03-03T12:42:08Z</time>
      </trkpt>
      <trkpt lat="43.47885" lon="6.90356">
        <ele>400.05</ele>
        <time>2013-03-03T12:42:24Z</time>
      </trkpt>
      <trkpt lat="43.47876" lon="6.90367">
        <ele>401.97</ele>
        <time>2013-03-03T12:42:38Z</time>
      </trkpt>
      <trkpt lat="43.47867" lon="6.90381">
        <ele>404.37</ele>
        <time>2013-03-03T12:42:53Z</time>
      </trkpt>
      <trkpt lat="43.47861" lon="6.90395">
        <ele>405.81</ele>
        <time>2013-03-03T12:43:08Z</time>
      </trkpt>
      <trkpt lat="43.47857" lon="6.904">
        <ele>408.22</ele>
        <time>2013-03-03T12:43:20Z</time>
      </trkpt>
      <trkpt lat="43.47855" lon="6.90386">
        <ele>410.14</ele>
        <time>2013-03-03T12:43:33Z</time>
      </trkpt>
      <trkpt lat="43.4785" lon="6.90397">
        <ele>410.62</ele>
        <time>2013-03-03T12:43:45Z</time>
      </trkpt>
      <trkpt lat="43.47846" lon="6.90414">
        <ele>413.5</ele>
        <time>2013-03-03T12:44:01Z</time>
      </trkpt>
      <trkpt lat="43.47843" lon="6.9043">
        <ele>415.43</ele>
        <time>2013-03-03T12:44:15Z</time>
      </trkpt>
      <trkpt lat="43.47843" lon="6.9044">
        <ele>416.39</ele>
        <time>2013-03-03T12:44:32Z</time>
      </trkpt>
      <trkpt lat="43.4784" lon="6.90448">
        <ele>417.35</ele>
        <time>2013-03-03T12:44:50Z</time>
      </trkpt>
      <trkpt lat="43.47837" lon="6.90453">
        <ele>418.79</ele>
        <time>2013-03-03T12:45:02Z</time>
      </trkpt>
      <trkpt lat="43.47835" lon="6.90436">
        <ele>421.68</ele>
        <time>2013-03-03T12:45:18Z</time>
      </trkpt>
      <trkpt lat="43.47832" lon="6.9043">
        <ele>422.64</ele>
        <time>2013-03-03T12:45:23Z</time>
      </trkpt>
      <trkpt lat="43.47827" lon="6.90413">
        <ele>424.08</ele>
        <time>2013-03-03T12:45:38Z</time>
      </trkpt>
      <trkpt lat="43.47822" lon="6.90418">
        <ele>426.48</ele>
        <time>2013-03-03T12:45:50Z</time>
      </trkpt>
      <trkpt lat="43.47819" lon="6.90428">
        <ele>427.92</ele>
        <time>2013-03-03T12:46:03Z</time>
      </trkpt>
      <trkpt lat="43.47818" lon="6.90435">
        <ele>429.37</ele>
        <time>2013-03-03T12:46:18Z</time>
      </trkpt>
      <trkpt lat="43.47817" lon="6.90435">
        <ele>429.37</ele>
        <time>2013-03-03T12:46:19Z</time>
      </trkpt>
      <trkpt lat="43.47817" lon="6.90433">
        <ele>429.85</ele>
        <time>2013-03-03T12:46:21Z</time>
      </trkpt>
      <trkpt lat="43.47813" lon="6.90423">
        <ele>430.81</ele>
        <time>2013-03-03T12:46:34Z</time>
      </trkpt>
      <trkpt lat="43.47809" lon="6.9042">
        <ele>431.77</ele>
        <time>2013-03-03T12:46:47Z</time>
      </trkpt>
      <trkpt lat="43.4781" lon="6.9042">
        <ele>431.77</ele>
        <time>2013-03-03T12:47:03Z</time>
      </trkpt>
      <trkpt lat="43.47806" lon="6.90419">
        <ele>431.29</ele>
        <time>2013-03-03T12:47:07Z</time>
      </trkpt>
      <trkpt lat="43.47796" lon="6.90416">
        <ele>433.21</ele>
        <time>2013-03-03T12:47:16Z</time>
      </trkpt>
      <trkpt lat="43.47799" lon="6.90424">
        <ele>434.65</ele>
        <time>2013-03-03T12:47:23Z</time>
      </trkpt>
      <trkpt lat="43.47802" lon="6.9044">
        <ele>437.06</ele>
        <time>2013-03-03T12:47:36Z</time>
      </trkpt>
      <trkpt lat="43.47799" lon="6.90457">
        <ele>438.98</ele>
        <time>2013-03-03T12:47:50Z</time>
      </trkpt>
      <trkpt lat="43.47795" lon="6.90478">
        <ele>441.86</ele>
        <time>2013-03-03T12:48:09Z</time>
      </trkpt>
      <trkpt lat="43.47794" lon="6.90479">
        <ele>442.34</ele>
        <time>2013-03-03T12:48:10Z</time>
      </trkpt>
      <trkpt lat="43.47791" lon="6.90496">
        <ele>444.27</ele>
        <time>2013-03-03T12:48:25Z</time>
      </trkpt>
      <trkpt lat="43.47785" lon="6.90512">
        <ele>446.19</ele>
        <time>2013-03-03T12:48:38Z</time>
      </trkpt>
      <trkpt lat="43.47783" lon="6.90514">
        <ele>446.67</ele>
        <time>2013-03-03T12:48:40Z</time>
      </trkpt>
      <trkpt lat="43.47778" lon="6.90525">
        <ele>448.59</ele>
        <time>2013-03-03T12:48:50Z</time>
      </trkpt>
      <trkpt lat="43.4777" lon="6.90541">
        <ele>451</ele>
        <time>2013-03-03T12:49:05Z</time>
      </trkpt>
      <trkpt lat="43.47765" lon="6.90551">
        <ele>451.48</ele>
        <time>2013-03-03T12:49:22Z</time>
      </trkpt>
      <trkpt lat="43.47765" lon="6.90547">
        <ele>451.96</ele>
        <time>2013-03-03T12:49:50Z</time>
      </trkpt>
      <trkpt lat="43.47765" lon="6.90551">
        <ele>451.48</ele>
        <time>2013-03-03T12:50:11Z</time>
      </trkpt>
      <trkpt lat="43.47765" lon="6.90547">
        <ele>451.96</ele>
        <time>2013-03-03T12:50:15Z</time>
      </trkpt>
      <trkpt lat="43.47767" lon="6.90528">
        <ele>454.36</ele>
        <time>2013-03-03T12:50:30Z</time>
      </trkpt>
      <trkpt lat="43.47767" lon="6.90527">
        <ele>454.36</ele>
        <time>2013-03-03T12:50:31Z</time>
      </trkpt>
      <trkpt lat="43.47768" lon="6.90513">
        <ele>456.76</ele>
        <time>2013-03-03T12:50:43Z</time>
      </trkpt>
      <trkpt lat="43.47769" lon="6.90499">
        <ele>457.24</ele>
        <time>2013-03-03T12:50:54Z</time>
      </trkpt>
      <trkpt lat="43.47767" lon="6.90479">
        <ele>460.13</ele>
        <time>2013-03-03T12:51:09Z</time>
      </trkpt>
      <trkpt lat="43.47761" lon="6.90468">
        <ele>461.57</ele>
        <time>2013-03-03T12:51:18Z</time>
      </trkpt>
      <trkpt lat="43.47758" lon="6.90466">
        <ele>462.05</ele>
        <time>2013-03-03T12:51:21Z</time>
      </trkpt>
      <trkpt lat="43.47744" lon="6.90462">
        <ele>463.01</ele>
        <time>2013-03-03T12:51:35Z</time>
      </trkpt>
      <trkpt lat="43.47735" lon="6.9046">
        <ele>464.45</ele>
        <time>2013-03-03T12:51:45Z</time>
      </trkpt>
      <trkpt lat="43.47721" lon="6.90463">
        <ele>466.86</ele>
        <time>2013-03-03T12:52:01Z</time>
      </trkpt>
      <trkpt lat="43.47709" lon="6.90466">
        <ele>468.78</ele>
        <time>2013-03-03T12:52:16Z</time>
      </trkpt>
      <trkpt lat="43.47704" lon="6.90468">
        <ele>470.7</ele>
        <time>2013-03-03T12:52:31Z</time>
      </trkpt>
      <trkpt lat="43.47695" lon="6.90472">
        <ele>470.7</ele>
        <time>2013-03-03T12:52:44Z</time>
      </trkpt>
      <trkpt lat="43.47683" lon="6.9048">
        <ele>473.59</ele>
        <time>2013-03-03T12:52:59Z</time>
      </trkpt>
      <trkpt lat="43.4767" lon="6.90489">
        <ele>475.99</ele>
        <time>2013-03-03T12:53:15Z</time>
      </trkpt>
      <trkpt lat="43.47662" lon="6.90492">
        <ele>477.43</ele>
        <time>2013-03-03T12:53:27Z</time>
      </trkpt>
      <trkpt lat="43.47652" lon="6.90492">
        <ele>479.35</ele>
        <time>2013-03-03T12:53:40Z</time>
      </trkpt>
      <trkpt lat="43.47651" lon="6.90489">
        <ele>478.39</ele>
        <time>2013-03-03T12:53:43Z</time>
      </trkpt>
      <trkpt lat="43.47645" lon="6.9049">
        <ele>479.84</ele>
        <time>2013-03-03T12:53:55Z</time>
      </trkpt>
      <trkpt lat="43.47644" lon="6.9049">
        <ele>480.32</ele>
        <time>2013-03-03T12:53:58Z</time>
      </trkpt>
      <trkpt lat="43.47636" lon="6.90487">
        <ele>481.28</ele>
        <time>2013-03-03T12:54:12Z</time>
      </trkpt>
      <trkpt lat="43.47627" lon="6.90486">
        <ele>483.2</ele>
        <time>2013-03-03T12:54:26Z</time>
      </trkpt>
      <trkpt lat="43.47623" lon="6.90482">
        <ele>483.68</ele>
        <time>2013-03-03T12:54:41Z</time>
      </trkpt>
      <trkpt lat="43.47621" lon="6.90488">
        <ele>486.56</ele>
        <time>2013-03-03T12:54:53Z</time>
      </trkpt>
      <trkpt lat="43.4762" lon="6.90492">
        <ele>489.93</ele>
        <time>2013-03-03T12:55:06Z</time>
      </trkpt>
      <trkpt lat="43.47618" lon="6.90494">
        <ele>491.37</ele>
        <time>2013-03-03T12:55:23Z</time>
      </trkpt>
      <trkpt lat="43.47616" lon="6.90492">
        <ele>493.29</ele>
        <time>2013-03-03T12:55:39Z</time>
      </trkpt>
      <trkpt lat="43.47612" lon="6.90491">
        <ele>495.7</ele>
        <time>2013-03-03T12:55:51Z</time>
      </trkpt>
      <trkpt lat="43.47613" lon="6.90487">
        <ele>496.18</ele>
        <time>2013-03-03T12:56:06Z</time>
      </trkpt>
      <trkpt lat="43.4761" lon="6.90487">
        <ele>496.18</ele>
        <time>2013-03-03T12:56:30Z</time>
      </trkpt>
      <trkpt lat="43.47607" lon="6.90475">
        <ele>497.62</ele>
        <time>2013-03-03T12:56:46Z</time>
      </trkpt>
      <trkpt lat="43.47608" lon="6.90478">
        <ele>497.14</ele>
        <time>2013-03-03T12:57:06Z</time>
      </trkpt>
      <trkpt lat="43.47607" lon="6.90481">
        <ele>496.66</ele>
        <time>2013-03-03T12:57:23Z</time>
      </trkpt>
      <trkpt lat="43.47604" lon="6.90481">
        <ele>496.66</ele>
        <time>2013-03-03T12:57:35Z</time>
      </trkpt>
      <trkpt lat="43.47602" lon="6.90479">
        <ele>500.02</ele>
        <time>2013-03-03T12:57:46Z</time>
      </trkpt>
      <trkpt lat="43.47602" lon="6.90479">
        <ele>498.58</ele>
        <time>2013-03-03T12:58:04Z</time>
      </trkpt>
      <trkpt lat="43.47604" lon="6.90481">
        <ele>496.66</ele>
        <time>2013-03-03T12:58:15Z</time>
      </trkpt>
      <trkpt lat="43.47607" lon="6.90482">
        <ele>495.7</ele>
        <time>2013-03-03T12:58:23Z</time>
      </trkpt>
      <trkpt lat="43.47612" lon="6.90492">
        <ele>494.74</ele>
        <time>2013-03-03T12:58:39Z</time>
      </trkpt>
      <trkpt lat="43.47612" lon="6.90493">
        <ele>492.81</ele>
        <time>2013-03-03T12:58:42Z</time>
      </trkpt>
      <trkpt lat="43.47614" lon="6.90493">
        <ele>492.33</ele>
        <time>2013-03-03T12:58:48Z</time>
      </trkpt>
      <trkpt lat="43.47619" lon="6.90495">
        <ele>488.97</ele>
        <time>2013-03-03T12:58:52Z</time>
      </trkpt>
      <trkpt lat="43.47619" lon="6.90495">
        <ele>489.93</ele>
        <time>2013-03-03T12:58:53Z</time>
      </trkpt>
      <trkpt lat="43.47619" lon="6.90494">
        <ele>486.56</ele>
        <time>2013-03-03T12:59:05Z</time>
      </trkpt>
      <trkpt lat="43.47619" lon="6.90494">
        <ele>486.56</ele>
        <time>2013-03-03T12:59:06Z</time>
      </trkpt>
      <trkpt lat="43.47621" lon="6.90485">
        <ele>483.68</ele>
        <time>2013-03-03T12:59:13Z</time>
      </trkpt>
      <trkpt lat="43.47629" lon="6.90485">
        <ele>481.28</ele>
        <time>2013-03-03T12:59:22Z</time>
      </trkpt>
      <trkpt lat="43.47635" lon="6.90488">
        <ele>480.8</ele>
        <time>2013-03-03T12:59:29Z</time>
      </trkpt>
      <trkpt lat="43.4764" lon="6.90487">
        <ele>478.39</ele>
        <time>2013-03-03T12:59:41Z</time>
      </trkpt>
      <trkpt lat="43.4764" lon="6.90484">
        <ele>477.91</ele>
        <time>2013-03-03T12:59:47Z</time>
      </trkpt>
      <trkpt lat="43.47634" lon="6.9047">
        <ele>475.51</ele>
        <time>2013-03-03T12:59:58Z</time>
      </trkpt>
      <trkpt lat="43.47626" lon="6.90454">
        <ele>472.63</ele>
        <time>2013-03-03T13:00:13Z</time>
      </trkpt>
      <trkpt lat="43.47624" lon="6.90448">
        <ele>471.18</ele>
        <time>2013-03-03T13:00:18Z</time>
      </trkpt>
      <trkpt lat="43.47619" lon="6.90433">
        <ele>470.7</ele>
        <time>2013-03-03T13:00:31Z</time>
      </trkpt>
      <trkpt lat="43.47619" lon="6.90421">
        <ele>468.78</ele>
        <time>2013-03-03T13:00:43Z</time>
      </trkpt>
      <trkpt lat="43.47614" lon="6.90408">
        <ele>468.3</ele>
        <time>2013-03-03T13:00:54Z</time>
      </trkpt>
      <trkpt lat="43.47603" lon="6.90392">
        <ele>468.3</ele>
        <time>2013-03-03T13:01:07Z</time>
      </trkpt>
      <trkpt lat="43.47598" lon="6.90382">
        <ele>467.34</ele>
        <time>2013-03-03T13:01:14Z</time>
      </trkpt>
      <trkpt lat="43.47593" lon="6.90374">
        <ele>468.3</ele>
        <time>2013-03-03T13:01:22Z</time>
      </trkpt>
      <trkpt lat="43.47591" lon="6.9037">
        <ele>468.3</ele>
        <time>2013-03-03T13:01:25Z</time>
      </trkpt>
      <trkpt lat="43.47585" lon="6.90359">
        <ele>466.86</ele>
        <time>2013-03-03T13:01:33Z</time>
      </trkpt>
      <trkpt lat="43.47581" lon="6.90357">
        <ele>466.38</ele>
        <time>2013-03-03T13:01:37Z</time>
      </trkpt>
      <trkpt lat="43.47573" lon="6.90359">
        <ele>465.42</ele>
        <time>2013-03-03T13:01:44Z</time>
      </trkpt>
      <trkpt lat="43.47572" lon="6.90362">
        <ele>465.42</ele>
        <time>2013-03-03T13:01:47Z</time>
      </trkpt>
      <trkpt lat="43.47563" lon="6.90377">
        <ele>468.3</ele>
        <time>2013-03-03T13:02:00Z</time>
      </trkpt>
      <trkpt lat="43.47557" lon="6.90393">
        <ele>470.7</ele>
        <time>2013-03-03T13:02:13Z</time>
      </trkpt>
      <trkpt lat="43.47554" lon="6.90403">
        <ele>473.11</ele>
        <time>2013-03-03T13:02:21Z</time>
      </trkpt>
      <trkpt lat="43.47552" lon="6.90415">
        <ele>475.51</ele>
        <time>2013-03-03T13:02:33Z</time>
      </trkpt>
      <trkpt lat="43.47551" lon="6.90422">
        <ele>475.51</ele>
        <time>2013-03-03T13:02:39Z</time>
      </trkpt>
      <trkpt lat="43.47549" lon="6.9043">
        <ele>474.55</ele>
        <time>2013-03-03T13:02:46Z</time>
      </trkpt>
      <trkpt lat="43.47549" lon="6.90445">
        <ele>474.07</ele>
        <time>2013-03-03T13:02:55Z</time>
      </trkpt>
      <trkpt lat="43.47548" lon="6.9045">
        <ele>473.11</ele>
        <time>2013-03-03T13:02:58Z</time>
      </trkpt>
      <trkpt lat="43.47549" lon="6.9046">
        <ele>473.11</ele>
        <time>2013-03-03T13:03:04Z</time>
      </trkpt>
      <trkpt lat="43.47552" lon="6.90467">
        <ele>474.07</ele>
        <time>2013-03-03T13:03:09Z</time>
      </trkpt>
      <trkpt lat="43.47558" lon="6.90489">
        <ele>475.03</ele>
        <time>2013-03-03T13:03:25Z</time>
      </trkpt>
      <trkpt lat="43.47564" lon="6.90508">
        <ele>475.51</ele>
        <time>2013-03-03T13:03:39Z</time>
      </trkpt>
      <trkpt lat="43.47568" lon="6.90519">
        <ele>475.51</ele>
        <time>2013-03-03T13:03:54Z</time>
      </trkpt>
      <trkpt lat="43.47569" lon="6.90534">
        <ele>473.11</ele>
        <time>2013-03-03T13:04:08Z</time>
      </trkpt>
      <trkpt lat="43.4757" lon="6.90536">
        <ele>473.11</ele>
        <time>2013-03-03T13:04:10Z</time>
      </trkpt>
      <trkpt lat="43.47571" lon="6.9054">
        <ele>472.63</ele>
        <time>2013-03-03T13:04:13Z</time>
      </trkpt>
      <trkpt lat="43.47574" lon="6.90548">
        <ele>472.14</ele>
        <time>2013-03-03T13:04:18Z</time>
      </trkpt>
      <trkpt lat="43.47577" lon="6.90552">
        <ele>472.63</ele>
        <time>2013-03-03T13:04:20Z</time>
      </trkpt>
      <trkpt lat="43.47586" lon="6.90569">
        <ele>474.55</ele>
        <time>2013-03-03T13:04:33Z</time>
      </trkpt>
      <trkpt lat="43.4759" lon="6.90583">
        <ele>475.03</ele>
        <time>2013-03-03T13:04:43Z</time>
      </trkpt>
      <trkpt lat="43.4759" lon="6.90585">
        <ele>474.55</ele>
        <time>2013-03-03T13:04:44Z</time>
      </trkpt>
      <trkpt lat="43.47592" lon="6.906">
        <ele>472.63</ele>
        <time>2013-03-03T13:04:56Z</time>
      </trkpt>
      <trkpt lat="43.47594" lon="6.9062">
        <ele>473.11</ele>
        <time>2013-03-03T13:05:09Z</time>
      </trkpt>
      <trkpt lat="43.476" lon="6.90646">
        <ele>474.55</ele>
        <time>2013-03-03T13:05:26Z</time>
      </trkpt>
      <trkpt lat="43.47601" lon="6.90652">
        <ele>475.03</ele>
        <time>2013-03-03T13:05:30Z</time>
      </trkpt>
      <trkpt lat="43.47613" lon="6.90663">
        <ele>475.51</ele>
        <time>2013-03-03T13:05:40Z</time>
      </trkpt>
      <trkpt lat="43.47624" lon="6.90649">
        <ele>477.43</ele>
        <time>2013-03-03T13:05:56Z</time>
      </trkpt>
      <trkpt lat="43.47627" lon="6.90644">
        <ele>477.43</ele>
        <time>2013-03-03T13:06:11Z</time>
      </trkpt>
      <trkpt lat="43.47628" lon="6.90642">
        <ele>477.91</ele>
        <time>2013-03-03T13:06:15Z</time>
      </trkpt>
      <trkpt lat="43.47635" lon="6.90629">
        <ele>478.87</ele>
        <time>2013-03-03T13:06:26Z</time>
      </trkpt>
      <trkpt lat="43.47645" lon="6.90607">
        <ele>480.32</ele>
        <time>2013-03-03T13:06:42Z</time>
      </trkpt>
      <trkpt lat="43.47648" lon="6.90592">
        <ele>481.28</ele>
        <time>2013-03-03T13:06:59Z</time>
      </trkpt>
      <trkpt lat="43.47648" lon="6.90595">
        <ele>481.28</ele>
        <time>2013-03-03T13:07:11Z</time>
      </trkpt>
      <trkpt lat="43.47648" lon="6.90596">
        <ele>481.28</ele>
        <time>2013-03-03T13:07:36Z</time>
      </trkpt>
      <trkpt lat="43.47648" lon="6.90595">
        <ele>480.8</ele>
        <time>2013-03-03T13:07:52Z</time>
      </trkpt>
      <trkpt lat="43.47649" lon="6.90587">
        <ele>480.8</ele>
        <time>2013-03-03T13:08:23Z</time>
      </trkpt>
      <trkpt lat="43.47651" lon="6.90587">
        <ele>480.32</ele>
        <time>2013-03-03T13:08:51Z</time>
      </trkpt>
      <trkpt lat="43.47653" lon="6.90588">
        <ele>481.28</ele>
        <time>2013-03-03T13:09:17Z</time>
      </trkpt>
      <trkpt lat="43.4765" lon="6.90591">
        <ele>481.28</ele>
        <time>2013-03-03T13:09:50Z</time>
      </trkpt>
      <trkpt lat="43.47648" lon="6.90593">
        <ele>480.8</ele>
        <time>2013-03-03T13:10:23Z</time>
      </trkpt>
      <trkpt lat="43.47648" lon="6.90592">
        <ele>477.43</ele>
        <time>2013-03-03T13:10:25Z</time>
      </trkpt>
      <trkpt lat="43.47648" lon="6.90592">
        <ele>482.24</ele>
        <time>2013-03-03T13:10:26Z</time>
      </trkpt>
      <trkpt lat="43.47649" lon="6.90592">
        <ele>483.68</ele>
        <time>2013-03-03T13:10:28Z</time>
      </trkpt>
      <trkpt lat="43.4765" lon="6.90592">
        <ele>481.76</ele>
        <time>2013-03-03T13:10:30Z</time>
      </trkpt>
      <trkpt lat="43.4765" lon="6.90589">
        <ele>482.24</ele>
        <time>2013-03-03T13:10:49Z</time>
      </trkpt>
      <trkpt lat="43.47648" lon="6.90594">
        <ele>482.24</ele>
        <time>2013-03-03T13:10:53Z</time>
      </trkpt>
      <trkpt lat="43.47646" lon="6.90597">
        <ele>481.28</ele>
        <time>2013-03-03T13:10:56Z</time>
      </trkpt>
      <trkpt lat="43.47643" lon="6.90606">
        <ele>480.8</ele>
        <time>2013-03-03T13:11:03Z</time>
      </trkpt>
      <trkpt lat="43.47643" lon="6.90614">
        <ele>480.32</ele>
        <time>2013-03-03T13:11:17Z</time>
      </trkpt>
      <trkpt lat="43.47643" lon="6.90614">
        <ele>480.32</ele>
        <time>2013-03-03T13:11:52Z</time>
      </trkpt>
      <trkpt lat="43.47643" lon="6.90614">
        <ele>480.32</ele>
        <time>2013-03-03T13:11:55Z</time>
      </trkpt>
      <trkpt lat="43.47641" lon="6.90617">
        <ele>479.35</ele>
        <time>2013-03-03T13:11:58Z</time>
      </trkpt>
      <trkpt lat="43.47629" lon="6.90644">
        <ele>477.91</ele>
        <time>2013-03-03T13:12:17Z</time>
      </trkpt>
      <trkpt lat="43.47623" lon="6.90652">
        <ele>476.95</ele>
        <time>2013-03-03T13:12:24Z</time>
      </trkpt>
      <trkpt lat="43.47615" lon="6.9065">
        <ele>478.87</ele>
        <time>2013-03-03T13:12:34Z</time>
      </trkpt>
      <trkpt lat="43.47616" lon="6.9065">
        <ele>478.39</ele>
        <time>2013-03-03T13:13:02Z</time>
      </trkpt>
      <trkpt lat="43.47614" lon="6.90651">
        <ele>478.87</ele>
        <time>2013-03-03T13:13:28Z</time>
      </trkpt>
      <trkpt lat="43.47614" lon="6.9065">
        <ele>478.87</ele>
        <time>2013-03-03T13:13:49Z</time>
      </trkpt>
      <trkpt lat="43.47614" lon="6.90651">
        <ele>478.87</ele>
        <time>2013-03-03T13:14:15Z</time>
      </trkpt>
      <trkpt lat="43.47615" lon="6.90648">
        <ele>478.87</ele>
        <time>2013-03-03T13:14:49Z</time>
      </trkpt>
      <trkpt lat="43.47612" lon="6.90654">
        <ele>477.43</ele>
        <time>2013-03-03T13:15:12Z</time>
      </trkpt>
      <trkpt lat="43.47608" lon="6.90657">
        <ele>475.99</ele>
        <time>2013-03-03T13:15:18Z</time>
      </trkpt>
      <trkpt lat="43.47608" lon="6.9066">
        <ele>475.03</ele>
        <time>2013-03-03T13:15:20Z</time>
      </trkpt>
      <trkpt lat="43.47613" lon="6.90663">
        <ele>474.55</ele>
        <time>2013-03-03T13:15:26Z</time>
      </trkpt>
      <trkpt lat="43.47622" lon="6.90653">
        <ele>475.99</ele>
        <time>2013-03-03T13:15:38Z</time>
      </trkpt>
      <trkpt lat="43.47624" lon="6.9065">
        <ele>476.47</ele>
        <time>2013-03-03T13:15:40Z</time>
      </trkpt>
      <trkpt lat="43.47625" lon="6.90648">
        <ele>476.47</ele>
        <time>2013-03-03T13:15:46Z</time>
      </trkpt>
      <trkpt lat="43.47622" lon="6.90654">
        <ele>475.99</ele>
        <time>2013-03-03T13:15:51Z</time>
      </trkpt>
      <trkpt lat="43.47623" lon="6.90663">
        <ele>472.63</ele>
        <time>2013-03-03T13:16:03Z</time>
      </trkpt>
      <trkpt lat="43.4763" lon="6.90663">
        <ele>469.74</ele>
        <time>2013-03-03T13:16:16Z</time>
      </trkpt>
      <trkpt lat="43.47632" lon="6.90673">
        <ele>466.86</ele>
        <time>2013-03-03T13:16:27Z</time>
      </trkpt>
      <trkpt lat="43.47632" lon="6.9068">
        <ele>464.93</ele>
        <time>2013-03-03T13:16:39Z</time>
      </trkpt>
      <trkpt lat="43.47631" lon="6.90692">
        <ele>463.97</ele>
        <time>2013-03-03T13:16:49Z</time>
      </trkpt>
      <trkpt lat="43.47634" lon="6.90697">
        <ele>461.57</ele>
        <time>2013-03-03T13:16:59Z</time>
      </trkpt>
      <trkpt lat="43.47634" lon="6.90698">
        <ele>460.61</ele>
        <time>2013-03-03T13:17:01Z</time>
      </trkpt>
      <trkpt lat="43.47638" lon="6.907">
        <ele>458.21</ele>
        <time>2013-03-03T13:17:09Z</time>
      </trkpt>
      <trkpt lat="43.47639" lon="6.90703">
        <ele>457.24</ele>
        <time>2013-03-03T13:17:12Z</time>
      </trkpt>
      <trkpt lat="43.47641" lon="6.90708">
        <ele>455.8</ele>
        <time>2013-03-03T13:17:16Z</time>
      </trkpt>
      <trkpt lat="43.47638" lon="6.90725">
        <ele>454.36</ele>
        <time>2013-03-03T13:17:31Z</time>
      </trkpt>
      <trkpt lat="43.47643" lon="6.90726">
        <ele>451</ele>
        <time>2013-03-03T13:17:38Z</time>
      </trkpt>
      <trkpt lat="43.47644" lon="6.90727">
        <ele>450.03</ele>
        <time>2013-03-03T13:17:40Z</time>
      </trkpt>
      <trkpt lat="43.47645" lon="6.90741">
        <ele>447.63</ele>
        <time>2013-03-03T13:17:52Z</time>
      </trkpt>
      <trkpt lat="43.47646" lon="6.90744">
        <ele>446.19</ele>
        <time>2013-03-03T13:17:56Z</time>
      </trkpt>
      <trkpt lat="43.47649" lon="6.90759">
        <ele>443.79</ele>
        <time>2013-03-03T13:18:09Z</time>
      </trkpt>
      <trkpt lat="43.47652" lon="6.90774">
        <ele>441.38</ele>
        <time>2013-03-03T13:18:20Z</time>
      </trkpt>
      <trkpt lat="43.47655" lon="6.90787">
        <ele>440.9</ele>
        <time>2013-03-03T13:18:30Z</time>
      </trkpt>
      <trkpt lat="43.4766" lon="6.90808">
        <ele>438.98</ele>
        <time>2013-03-03T13:18:44Z</time>
      </trkpt>
      <trkpt lat="43.47666" lon="6.90826">
        <ele>436.58</ele>
        <time>2013-03-03T13:18:56Z</time>
      </trkpt>
      <trkpt lat="43.47667" lon="6.90829">
        <ele>436.1</ele>
        <time>2013-03-03T13:18:58Z</time>
      </trkpt>
      <trkpt lat="43.4767" lon="6.90838">
        <ele>434.17</ele>
        <time>2013-03-03T13:19:04Z</time>
      </trkpt>
      <trkpt lat="43.47673" lon="6.90841">
        <ele>433.69</ele>
        <time>2013-03-03T13:19:08Z</time>
      </trkpt>
      <trkpt lat="43.4768" lon="6.90849">
        <ele>432.25</ele>
        <time>2013-03-03T13:19:21Z</time>
      </trkpt>
      <trkpt lat="43.4768" lon="6.90862">
        <ele>431.77</ele>
        <time>2013-03-03T13:19:38Z</time>
      </trkpt>
      <trkpt lat="43.47687" lon="6.9087">
        <ele>428.89</ele>
        <time>2013-03-03T13:19:49Z</time>
      </trkpt>
      <trkpt lat="43.4769" lon="6.90875">
        <ele>428.4</ele>
        <time>2013-03-03T13:19:53Z</time>
      </trkpt>
      <trkpt lat="43.47697" lon="6.90893">
        <ele>426</ele>
        <time>2013-03-03T13:20:06Z</time>
      </trkpt>
      <trkpt lat="43.477" lon="6.90906">
        <ele>425.52</ele>
        <time>2013-03-03T13:20:19Z</time>
      </trkpt>
      <trkpt lat="43.47701" lon="6.90912">
        <ele>425.04</ele>
        <time>2013-03-03T13:20:30Z</time>
      </trkpt>
      <trkpt lat="43.47703" lon="6.90918">
        <ele>424.56</ele>
        <time>2013-03-03T13:20:35Z</time>
      </trkpt>
      <trkpt lat="43.47707" lon="6.90928">
        <ele>423.6</ele>
        <time>2013-03-03T13:20:43Z</time>
      </trkpt>
      <trkpt lat="43.47712" lon="6.90942">
        <ele>421.68</ele>
        <time>2013-03-03T13:20:57Z</time>
      </trkpt>
      <trkpt lat="43.47714" lon="6.90951">
        <ele>421.19</ele>
        <time>2013-03-03T13:21:09Z</time>
      </trkpt>
      <trkpt lat="43.47715" lon="6.90954">
        <ele>419.75</ele>
        <time>2013-03-03T13:21:12Z</time>
      </trkpt>
      <trkpt lat="43.47716" lon="6.90958">
        <ele>419.75</ele>
        <time>2013-03-03T13:21:16Z</time>
      </trkpt>
      <trkpt lat="43.47721" lon="6.90967">
        <ele>419.27</ele>
        <time>2013-03-03T13:21:26Z</time>
      </trkpt>
      <trkpt lat="43.47726" lon="6.90979">
        <ele>415.91</ele>
        <time>2013-03-03T13:21:38Z</time>
      </trkpt>
      <trkpt lat="43.47726" lon="6.90981">
        <ele>416.87</ele>
        <time>2013-03-03T13:21:49Z</time>
      </trkpt>
      <trkpt lat="43.47727" lon="6.90991">
        <ele>417.83</ele>
        <time>2013-03-03T13:22:01Z</time>
      </trkpt>
      <trkpt lat="43.47732" lon="6.90996">
        <ele>414.95</ele>
        <time>2013-03-03T13:22:11Z</time>
      </trkpt>
      <trkpt lat="43.47736" lon="6.91004">
        <ele>414.47</ele>
        <time>2013-03-03T13:22:21Z</time>
      </trkpt>
      <trkpt lat="43.47737" lon="6.91006">
        <ele>413.98</ele>
        <time>2013-03-03T13:22:23Z</time>
      </trkpt>
      <trkpt lat="43.47745" lon="6.91022">
        <ele>412.54</ele>
        <time>2013-03-03T13:22:38Z</time>
      </trkpt>
      <trkpt lat="43.47751" lon="6.91039">
        <ele>412.06</ele>
        <time>2013-03-03T13:22:53Z</time>
      </trkpt>
      <trkpt lat="43.47756" lon="6.91046">
        <ele>410.62</ele>
        <time>2013-03-03T13:23:06Z</time>
      </trkpt>
      <trkpt lat="43.47759" lon="6.91054">
        <ele>409.18</ele>
        <time>2013-03-03T13:23:18Z</time>
      </trkpt>
      <trkpt lat="43.47765" lon="6.91054">
        <ele>406.77</ele>
        <time>2013-03-03T13:23:30Z</time>
      </trkpt>
      <trkpt lat="43.4777" lon="6.91058">
        <ele>403.41</ele>
        <time>2013-03-03T13:23:39Z</time>
      </trkpt>
      <trkpt lat="43.47775" lon="6.91063">
        <ele>400.53</ele>
        <time>2013-03-03T13:23:51Z</time>
      </trkpt>
      <trkpt lat="43.47776" lon="6.91064">
        <ele>399.57</ele>
        <time>2013-03-03T13:23:53Z</time>
      </trkpt>
      <trkpt lat="43.47781" lon="6.91066">
        <ele>398.12</ele>
        <time>2013-03-03T13:24:05Z</time>
      </trkpt>
      <trkpt lat="43.47786" lon="6.9106">
        <ele>395.24</ele>
        <time>2013-03-03T13:24:17Z</time>
      </trkpt>
      <trkpt lat="43.47787" lon="6.91059">
        <ele>394.76</ele>
        <time>2013-03-03T13:24:20Z</time>
      </trkpt>
      <trkpt lat="43.47789" lon="6.91054">
        <ele>393.8</ele>
        <time>2013-03-03T13:24:24Z</time>
      </trkpt>
      <trkpt lat="43.47794" lon="6.91043">
        <ele>390.43</ele>
        <time>2013-03-03T13:24:39Z</time>
      </trkpt>
      <trkpt lat="43.47799" lon="6.91041">
        <ele>388.51</ele>
        <time>2013-03-03T13:24:52Z</time>
      </trkpt>
      <trkpt lat="43.47803" lon="6.91037">
        <ele>385.15</ele>
        <time>2013-03-03T13:25:04Z</time>
      </trkpt>
      <trkpt lat="43.47803" lon="6.91037">
        <ele>385.15</ele>
        <time>2013-03-03T13:25:05Z</time>
      </trkpt>
      <trkpt lat="43.47807" lon="6.91031">
        <ele>382.74</ele>
        <time>2013-03-03T13:25:17Z</time>
      </trkpt>
      <trkpt lat="43.47805" lon="6.91029">
        <ele>382.74</ele>
        <time>2013-03-03T13:25:30Z</time>
      </trkpt>
      <trkpt lat="43.47805" lon="6.9103">
        <ele>382.26</ele>
        <time>2013-03-03T13:25:34Z</time>
      </trkpt>
      <trkpt lat="43.47807" lon="6.91033">
        <ele>382.26</ele>
        <time>2013-03-03T13:25:37Z</time>
      </trkpt>
      <trkpt lat="43.47817" lon="6.9104">
        <ele>381.3</ele>
        <time>2013-03-03T13:25:48Z</time>
      </trkpt>
      <trkpt lat="43.47829" lon="6.91049">
        <ele>378.9</ele>
        <time>2013-03-03T13:26:00Z</time>
      </trkpt>
      <trkpt lat="43.4784" lon="6.91054">
        <ele>375.53</ele>
        <time>2013-03-03T13:26:15Z</time>
      </trkpt>
      <trkpt lat="43.47846" lon="6.91059">
        <ele>374.09</ele>
        <time>2013-03-03T13:26:28Z</time>
      </trkpt>
      <trkpt lat="43.47842" lon="6.91063">
        <ele>374.57</ele>
        <time>2013-03-03T13:26:40Z</time>
      </trkpt>
      <trkpt lat="43.47844" lon="6.91065">
        <ele>374.57</ele>
        <time>2013-03-03T13:26:57Z</time>
      </trkpt>
      <trkpt lat="43.47841" lon="6.91067">
        <ele>375.05</ele>
        <time>2013-03-03T13:27:25Z</time>
      </trkpt>
      <trkpt lat="43.47845" lon="6.91066">
        <ele>372.65</ele>
        <time>2013-03-03T13:27:36Z</time>
      </trkpt>
      <trkpt lat="43.47854" lon="6.91068">
        <ele>369.28</ele>
        <time>2013-03-03T13:27:46Z</time>
      </trkpt>
      <trkpt lat="43.47858" lon="6.91068">
        <ele>367.84</ele>
        <time>2013-03-03T13:27:53Z</time>
      </trkpt>
      <trkpt lat="43.47863" lon="6.91067">
        <ele>365.92</ele>
        <time>2013-03-03T13:28:00Z</time>
      </trkpt>
      <trkpt lat="43.47872" lon="6.9107">
        <ele>363.04</ele>
        <time>2013-03-03T13:28:12Z</time>
      </trkpt>
      <trkpt lat="43.47879" lon="6.91072">
        <ele>361.59</ele>
        <time>2013-03-03T13:28:19Z</time>
      </trkpt>
      <trkpt lat="43.47884" lon="6.91074">
        <ele>360.15</ele>
        <time>2013-03-03T13:28:24Z</time>
      </trkpt>
      <trkpt lat="43.47887" lon="6.91074">
        <ele>359.19</ele>
        <time>2013-03-03T13:28:27Z</time>
      </trkpt>
      <trkpt lat="43.4789" lon="6.91072">
        <ele>358.23</ele>
        <time>2013-03-03T13:28:30Z</time>
      </trkpt>
      <trkpt lat="43.479" lon="6.91073">
        <ele>355.83</ele>
        <time>2013-03-03T13:28:40Z</time>
      </trkpt>
      <trkpt lat="43.47902" lon="6.91075">
        <ele>354.86</ele>
        <time>2013-03-03T13:28:43Z</time>
      </trkpt>
      <trkpt lat="43.47908" lon="6.91077">
        <ele>352.94</ele>
        <time>2013-03-03T13:28:50Z</time>
      </trkpt>
      <trkpt lat="43.47921" lon="6.91083">
        <ele>350.06</ele>
        <time>2013-03-03T13:29:02Z</time>
      </trkpt>
      <trkpt lat="43.47929" lon="6.91084">
        <ele>348.62</ele>
        <time>2013-03-03T13:29:10Z</time>
      </trkpt>
      <trkpt lat="43.47934" lon="6.91089">
        <ele>346.69</ele>
        <time>2013-03-03T13:29:17Z</time>
      </trkpt>
      <trkpt lat="43.47938" lon="6.9109">
        <ele>345.73</ele>
        <time>2013-03-03T13:29:22Z</time>
      </trkpt>
      <trkpt lat="43.47943" lon="6.91092">
        <ele>344.29</ele>
        <time>2013-03-03T13:29:27Z</time>
      </trkpt>
      <trkpt lat="43.47952" lon="6.91102">
        <ele>341.89</ele>
        <time>2013-03-03T13:29:36Z</time>
      </trkpt>
      <trkpt lat="43.47957" lon="6.91108">
        <ele>340.92</ele>
        <time>2013-03-03T13:29:43Z</time>
      </trkpt>
      <trkpt lat="43.47964" lon="6.91111">
        <ele>339</ele>
        <time>2013-03-03T13:29:56Z</time>
      </trkpt>
      <trkpt lat="43.47974" lon="6.9111">
        <ele>336.6</ele>
        <time>2013-03-03T13:30:05Z</time>
      </trkpt>
      <trkpt lat="43.47975" lon="6.91109">
        <ele>336.12</ele>
        <time>2013-03-03T13:30:06Z</time>
      </trkpt>
      <trkpt lat="43.47976" lon="6.91108">
        <ele>335.64</ele>
        <time>2013-03-03T13:30:08Z</time>
      </trkpt>
      <trkpt lat="43.47985" lon="6.9111">
        <ele>334.68</ele>
        <time>2013-03-03T13:30:16Z</time>
      </trkpt>
      <trkpt lat="43.47994" lon="6.9112">
        <ele>334.2</ele>
        <time>2013-03-03T13:30:32Z</time>
      </trkpt>
      <trkpt lat="43.48012" lon="6.91135">
        <ele>332.75</ele>
        <time>2013-03-03T13:30:49Z</time>
      </trkpt>
      <trkpt lat="43.48028" lon="6.91148">
        <ele>332.27</ele>
        <time>2013-03-03T13:31:05Z</time>
      </trkpt>
      <trkpt lat="43.48042" lon="6.91161">
        <ele>331.79</ele>
        <time>2013-03-03T13:31:20Z</time>
      </trkpt>
      <trkpt lat="43.48047" lon="6.91175">
        <ele>331.31</ele>
        <time>2013-03-03T13:31:30Z</time>
      </trkpt>
      <trkpt lat="43.48047" lon="6.91193">
        <ele>330.83</ele>
        <time>2013-03-03T13:31:47Z</time>
      </trkpt>
      <trkpt lat="43.48047" lon="6.91194">
        <ele>331.31</ele>
        <time>2013-03-03T13:32:07Z</time>
      </trkpt>
      <trkpt lat="43.48047" lon="6.91193">
        <ele>330.35</ele>
        <time>2013-03-03T13:32:17Z</time>
      </trkpt>
      <trkpt lat="43.48045" lon="6.91173">
        <ele>331.31</ele>
        <time>2013-03-03T13:32:32Z</time>
      </trkpt>
      <trkpt lat="43.48043" lon="6.91169">
        <ele>331.79</ele>
        <time>2013-03-03T13:32:49Z</time>
      </trkpt>
      <trkpt lat="43.48041" lon="6.91168">
        <ele>331.79</ele>
        <time>2013-03-03T13:32:52Z</time>
      </trkpt>
      <trkpt lat="43.48033" lon="6.91161">
        <ele>333.23</ele>
        <time>2013-03-03T13:33:02Z</time>
      </trkpt>
      <trkpt lat="43.48032" lon="6.91162">
        <ele>334.2</ele>
        <time>2013-03-03T13:33:04Z</time>
      </trkpt>
      <trkpt lat="43.48025" lon="6.91162">
        <ele>335.64</ele>
        <time>2013-03-03T13:33:16Z</time>
      </trkpt>
      <trkpt lat="43.48025" lon="6.91161">
        <ele>334.68</ele>
        <time>2013-03-03T13:33:32Z</time>
      </trkpt>
      <trkpt lat="43.48024" lon="6.91165">
        <ele>334.68</ele>
        <time>2013-03-03T13:33:45Z</time>
      </trkpt>
      <trkpt lat="43.48023" lon="6.91164">
        <ele>334.2</ele>
        <time>2013-03-03T13:34:33Z</time>
      </trkpt>
      <trkpt lat="43.48024" lon="6.91164">
        <ele>333.71</ele>
        <time>2013-03-03T13:35:08Z</time>
      </trkpt>
      <trkpt lat="43.48024" lon="6.91164">
        <ele>333.71</ele>
        <time>2013-03-03T13:35:55Z</time>
      </trkpt>
      <trkpt lat="43.48022" lon="6.91163">
        <ele>333.71</ele>
        <time>2013-03-03T13:36:46Z</time>
      </trkpt>
      <trkpt lat="43.48022" lon="6.91164">
        <ele>333.71</ele>
        <time>2013-03-03T13:37:23Z</time>
      </trkpt>
      <trkpt lat="43.48023" lon="6.91165">
        <ele>333.71</ele>
        <time>2013-03-03T13:38:10Z</time>
      </trkpt>
      <trkpt lat="43.48023" lon="6.91162">
        <ele>334.2</ele>
        <time>2013-03-03T13:38:43Z</time>
      </trkpt>
      <trkpt lat="43.48024" lon="6.91166">
        <ele>334.2</ele>
        <time>2013-03-03T13:39:03Z</time>
      </trkpt>
      <trkpt lat="43.48026" lon="6.91164">
        <ele>333.71</ele>
        <time>2013-03-03T13:39:06Z</time>
      </trkpt>
      <trkpt lat="43.48037" lon="6.91162">
        <ele>330.83</ele>
        <time>2013-03-03T13:39:18Z</time>
      </trkpt>
      <trkpt lat="43.48045" lon="6.91169">
        <ele>330.35</ele>
        <time>2013-03-03T13:39:31Z</time>
      </trkpt>
      <trkpt lat="43.48049" lon="6.9117">
        <ele>329.87</ele>
        <time>2013-03-03T13:39:46Z</time>
      </trkpt>
      <trkpt lat="43.48051" lon="6.91169">
        <ele>331.31</ele>
        <time>2013-03-03T13:40:23Z</time>
      </trkpt>
      <trkpt lat="43.48051" lon="6.91168">
        <ele>327.95</ele>
        <time>2013-03-03T13:40:26Z</time>
      </trkpt>
      <trkpt lat="43.48051" lon="6.91168">
        <ele>331.31</ele>
        <time>2013-03-03T13:40:27Z</time>
      </trkpt>
      <trkpt lat="43.48049" lon="6.91174">
        <ele>329.39</ele>
        <time>2013-03-03T13:40:43Z</time>
      </trkpt>
      <trkpt lat="43.48043" lon="6.91181">
        <ele>329.87</ele>
        <time>2013-03-03T13:40:49Z</time>
      </trkpt>
      <trkpt lat="43.48024" lon="6.91189">
        <ele>327.47</ele>
        <time>2013-03-03T13:41:06Z</time>
      </trkpt>
      <trkpt lat="43.48024" lon="6.9119">
        <ele>326.99</ele>
        <time>2013-03-03T13:41:07Z</time>
      </trkpt>
      <trkpt lat="43.48016" lon="6.91193">
        <ele>324.58</ele>
        <time>2013-03-03T13:41:16Z</time>
      </trkpt>
      <trkpt lat="43.48005" lon="6.91196">
        <ele>321.22</ele>
        <time>2013-03-03T13:41:31Z</time>
      </trkpt>
      <trkpt lat="43.47995" lon="6.91197">
        <ele>317.85</ele>
        <time>2013-03-03T13:41:43Z</time>
      </trkpt>
      <trkpt lat="43.47985" lon="6.91197">
        <ele>315.93</ele>
        <time>2013-03-03T13:41:56Z</time>
      </trkpt>
      <trkpt lat="43.47973" lon="6.91196">
        <ele>312.57</ele>
        <time>2013-03-03T13:42:08Z</time>
      </trkpt>
      <trkpt lat="43.47954" lon="6.91196">
        <ele>309.2</ele>
        <time>2013-03-03T13:42:24Z</time>
      </trkpt>
      <trkpt lat="43.47934" lon="6.91195">
        <ele>305.84</ele>
        <time>2013-03-03T13:42:39Z</time>
      </trkpt>
      <trkpt lat="43.47926" lon="6.91199">
        <ele>302.95</ele>
        <time>2013-03-03T13:42:51Z</time>
      </trkpt>
      <trkpt lat="43.47917" lon="6.91206">
        <ele>299.59</ele>
        <time>2013-03-03T13:43:04Z</time>
      </trkpt>
      <trkpt lat="43.47913" lon="6.91208">
        <ele>298.15</ele>
        <time>2013-03-03T13:43:09Z</time>
      </trkpt>
      <trkpt lat="43.47899" lon="6.91235">
        <ele>295.26</ele>
        <time>2013-03-03T13:43:26Z</time>
      </trkpt>
      <trkpt lat="43.47898" lon="6.91239">
        <ele>295.26</ele>
        <time>2013-03-03T13:43:29Z</time>
      </trkpt>
      <trkpt lat="43.47887" lon="6.9126">
        <ele>291.9</ele>
        <time>2013-03-03T13:43:41Z</time>
      </trkpt>
      <trkpt lat="43.4788" lon="6.91271">
        <ele>291.42</ele>
        <time>2013-03-03T13:43:49Z</time>
      </trkpt>
      <trkpt lat="43.47873" lon="6.91285">
        <ele>289.49</ele>
        <time>2013-03-03T13:43:57Z</time>
      </trkpt>
      <trkpt lat="43.47859" lon="6.9131">
        <ele>286.13</ele>
        <time>2013-03-03T13:44:14Z</time>
      </trkpt>
      <trkpt lat="43.47848" lon="6.91327">
        <ele>283.25</ele>
        <time>2013-03-03T13:44:27Z</time>
      </trkpt>
      <trkpt lat="43.47836" lon="6.9135">
        <ele>279.88</ele>
        <time>2013-03-03T13:44:40Z</time>
      </trkpt>
      <trkpt lat="43.47831" lon="6.91364">
        <ele>278.92</ele>
        <time>2013-03-03T13:44:54Z</time>
      </trkpt>
      <trkpt lat="43.4783" lon="6.91367">
        <ele>278.92</ele>
        <time>2013-03-03T13:45:00Z</time>
      </trkpt>
      <trkpt lat="43.47818" lon="6.91388">
        <ele>275.56</ele>
        <time>2013-03-03T13:45:16Z</time>
      </trkpt>
      <trkpt lat="43.47812" lon="6.91404">
        <ele>273.15</ele>
        <time>2013-03-03T13:45:29Z</time>
      </trkpt>
      <trkpt lat="43.47812" lon="6.91405">
        <ele>272.67</ele>
        <time>2013-03-03T13:45:30Z</time>
      </trkpt>
      <trkpt lat="43.4781" lon="6.91416">
        <ele>271.23</ele>
        <time>2013-03-03T13:45:38Z</time>
      </trkpt>
      <trkpt lat="43.47808" lon="6.91422">
        <ele>270.27</ele>
        <time>2013-03-03T13:45:42Z</time>
      </trkpt>
      <trkpt lat="43.47803" lon="6.91447">
        <ele>267.86</ele>
        <time>2013-03-03T13:45:56Z</time>
      </trkpt>
      <trkpt lat="43.47799" lon="6.91471">
        <ele>265.46</ele>
        <time>2013-03-03T13:46:07Z</time>
      </trkpt>
      <trkpt lat="43.47795" lon="6.91497">
        <ele>262.58</ele>
        <time>2013-03-03T13:46:20Z</time>
      </trkpt>
      <trkpt lat="43.4779" lon="6.91526">
        <ele>259.69</ele>
        <time>2013-03-03T13:46:34Z</time>
      </trkpt>
      <trkpt lat="43.47783" lon="6.91551">
        <ele>257.77</ele>
        <time>2013-03-03T13:46:48Z</time>
      </trkpt>
      <trkpt lat="43.47776" lon="6.9157">
        <ele>254.89</ele>
        <time>2013-03-03T13:47:00Z</time>
      </trkpt>
      <trkpt lat="43.47776" lon="6.9157">
        <ele>252</ele>
        <time>2013-03-03T13:47:12Z</time>
      </trkpt>
      <trkpt lat="43.47774" lon="6.91575">
        <ele>250.08</ele>
        <time>2013-03-03T13:47:25Z</time>
      </trkpt>
      <trkpt lat="43.47767" lon="6.91587">
        <ele>247.2</ele>
        <time>2013-03-03T13:47:40Z</time>
      </trkpt>
      <trkpt lat="43.47757" lon="6.91606">
        <ele>243.83</ele>
        <time>2013-03-03T13:47:54Z</time>
      </trkpt>
      <trkpt lat="43.47753" lon="6.91617">
        <ele>244.31</ele>
        <time>2013-03-03T13:48:07Z</time>
      </trkpt>
      <trkpt lat="43.4775" lon="6.91623">
        <ele>243.83</ele>
        <time>2013-03-03T13:48:32Z</time>
      </trkpt>
      <trkpt lat="43.47741" lon="6.91621">
        <ele>241.91</ele>
        <time>2013-03-03T13:48:48Z</time>
      </trkpt>
      <trkpt lat="43.4774" lon="6.9162">
        <ele>240.95</ele>
        <time>2013-03-03T13:48:50Z</time>
      </trkpt>
      <trkpt lat="43.4773" lon="6.91613">
        <ele>239.02</ele>
        <time>2013-03-03T13:49:03Z</time>
      </trkpt>
      <trkpt lat="43.47721" lon="6.91608">
        <ele>238.06</ele>
        <time>2013-03-03T13:49:17Z</time>
      </trkpt>
      <trkpt lat="43.47718" lon="6.91611">
        <ele>238.06</ele>
        <time>2013-03-03T13:49:51Z</time>
      </trkpt>
      <trkpt lat="43.47719" lon="6.91611">
        <ele>237.1</ele>
        <time>2013-03-03T13:50:30Z</time>
      </trkpt>
      <trkpt lat="43.47711" lon="6.91603">
        <ele>232.78</ele>
        <time>2013-03-03T13:50:43Z</time>
      </trkpt>
      <trkpt lat="43.4771" lon="6.91603">
        <ele>236.62</ele>
        <time>2013-03-03T13:50:44Z</time>
      </trkpt>
      <trkpt lat="43.4771" lon="6.91603">
        <ele>233.26</ele>
        <time>2013-03-03T13:50:45Z</time>
      </trkpt>
      <trkpt lat="43.4771" lon="6.91603">
        <ele>238.54</ele>
        <time>2013-03-03T13:50:46Z</time>
      </trkpt>
      <trkpt lat="43.47709" lon="6.91603">
        <ele>235.66</ele>
        <time>2013-03-03T13:50:50Z</time>
      </trkpt>
      <trkpt lat="43.47696" lon="6.91596">
        <ele>232.78</ele>
        <time>2013-03-03T13:51:04Z</time>
      </trkpt>
      <trkpt lat="43.4768" lon="6.91589">
        <ele>229.41</ele>
        <time>2013-03-03T13:51:18Z</time>
      </trkpt>
      <trkpt lat="43.47664" lon="6.91585">
        <ele>226.53</ele>
        <time>2013-03-03T13:51:31Z</time>
      </trkpt>
      <trkpt lat="43.47645" lon="6.91581">
        <ele>223.16</ele>
        <time>2013-03-03T13:51:45Z</time>
      </trkpt>
      <trkpt lat="43.47628" lon="6.9158">
        <ele>220.28</ele>
        <time>2013-03-03T13:51:59Z</time>
      </trkpt>
      <trkpt lat="43.47616" lon="6.91579">
        <ele>217.4</ele>
        <time>2013-03-03T13:52:11Z</time>
      </trkpt>
      <trkpt lat="43.4761" lon="6.91575">
        <ele>215.47</ele>
        <time>2013-03-03T13:52:22Z</time>
      </trkpt>
      <trkpt lat="43.47604" lon="6.91575">
        <ele>213.55</ele>
        <time>2013-03-03T13:52:34Z</time>
      </trkpt>
      <trkpt lat="43.47602" lon="6.91594">
        <ele>211.63</ele>
        <time>2013-03-03T13:52:49Z</time>
      </trkpt>
      <trkpt lat="43.47598" lon="6.9161">
        <ele>209.22</ele>
        <time>2013-03-03T13:53:03Z</time>
      </trkpt>
      <trkpt lat="43.47601" lon="6.91621">
        <ele>205.86</ele>
        <time>2013-03-03T13:53:14Z</time>
      </trkpt>
      <trkpt lat="43.47604" lon="6.91627">
        <ele>203.46</ele>
        <time>2013-03-03T13:53:25Z</time>
      </trkpt>
      <trkpt lat="43.47603" lon="6.91636">
        <ele>200.09</ele>
        <time>2013-03-03T13:53:37Z</time>
      </trkpt>
      <trkpt lat="43.47601" lon="6.91642">
        <ele>197.69</ele>
        <time>2013-03-03T13:53:49Z</time>
      </trkpt>
      <trkpt lat="43.47596" lon="6.91658">
        <ele>194.8</ele>
        <time>2013-03-03T13:54:01Z</time>
      </trkpt>
      <trkpt lat="43.47592" lon="6.91671">
        <ele>191.44</ele>
        <time>2013-03-03T13:54:13Z</time>
      </trkpt>
      <trkpt lat="43.47583" lon="6.91694">
        <ele>188.56</ele>
        <time>2013-03-03T13:54:27Z</time>
      </trkpt>
      <trkpt lat="43.47581" lon="6.917">
        <ele>188.08</ele>
        <time>2013-03-03T13:54:30Z</time>
      </trkpt>
      <trkpt lat="43.47574" lon="6.91723">
        <ele>187.11</ele>
        <time>2013-03-03T13:54:37Z</time>
      </trkpt>
      <trkpt lat="43.47562" lon="6.91743">
        <ele>184.71</ele>
        <time>2013-03-03T13:54:53Z</time>
      </trkpt>
      <trkpt lat="43.47553" lon="6.91755">
        <ele>181.83</ele>
        <time>2013-03-03T13:55:04Z</time>
      </trkpt>
      <trkpt lat="43.47544" lon="6.91765">
        <ele>178.94</ele>
        <time>2013-03-03T13:55:17Z</time>
      </trkpt>
      <trkpt lat="43.47533" lon="6.9178">
        <ele>176.06</ele>
        <time>2013-03-03T13:55:31Z</time>
      </trkpt>
      <trkpt lat="43.47525" lon="6.91795">
        <ele>173.17</ele>
        <time>2013-03-03T13:55:44Z</time>
      </trkpt>
      <trkpt lat="43.47503" lon="6.91854">
        <ele>170.77</ele>
        <time>2013-03-03T13:55:57Z</time>
      </trkpt>
      <trkpt lat="43.4749" lon="6.9186">
        <ele>166.93</ele>
        <time>2013-03-03T13:56:11Z</time>
      </trkpt>
      <trkpt lat="43.47478" lon="6.91859">
        <ele>164.52</ele>
        <time>2013-03-03T13:56:24Z</time>
      </trkpt>
      <trkpt lat="43.47469" lon="6.91855">
        <ele>163.56</ele>
        <time>2013-03-03T13:56:36Z</time>
      </trkpt>
      <trkpt lat="43.47466" lon="6.91854">
        <ele>163.08</ele>
        <time>2013-03-03T13:56:50Z</time>
      </trkpt>
      <trkpt lat="43.47463" lon="6.91853">
        <ele>163.08</ele>
        <time>2013-03-03T13:56:52Z</time>
      </trkpt>
      <trkpt lat="43.47457" lon="6.9185">
        <ele>161.64</ele>
        <time>2013-03-03T13:56:57Z</time>
      </trkpt>
      <trkpt lat="43.47446" lon="6.9184">
        <ele>158.75</ele>
        <time>2013-03-03T13:57:09Z</time>
      </trkpt>
      <trkpt lat="43.47442" lon="6.91838">
        <ele>158.75</ele>
        <time>2013-03-03T13:57:24Z</time>
      </trkpt>
      <trkpt lat="43.47438" lon="6.91838">
        <ele>158.75</ele>
        <time>2013-03-03T13:57:41Z</time>
      </trkpt>
      <trkpt lat="43.47438" lon="6.91834">
        <ele>158.27</ele>
        <time>2013-03-03T13:57:47Z</time>
      </trkpt>
      <trkpt lat="43.47435" lon="6.91828">
        <ele>157.79</ele>
        <time>2013-03-03T13:57:52Z</time>
      </trkpt>
      <trkpt lat="43.47428" lon="6.91816">
        <ele>153.95</ele>
        <time>2013-03-03T13:58:03Z</time>
      </trkpt>
      <trkpt lat="43.47418" lon="6.91801">
        <ele>151.06</ele>
        <time>2013-03-03T13:58:19Z</time>
      </trkpt>
      <trkpt lat="43.47408" lon="6.91784">
        <ele>149.62</ele>
        <time>2013-03-03T13:58:32Z</time>
      </trkpt>
      <trkpt lat="43.47391" lon="6.9177">
        <ele>146.26</ele>
        <time>2013-03-03T13:58:50Z</time>
      </trkpt>
      <trkpt lat="43.47385" lon="6.91781">
        <ele>143.85</ele>
        <time>2013-03-03T13:59:04Z</time>
      </trkpt>
      <trkpt lat="43.47382" lon="6.91786">
        <ele>143.37</ele>
        <time>2013-03-03T13:59:09Z</time>
      </trkpt>
      <trkpt lat="43.4738" lon="6.91789">
        <ele>141.45</ele>
        <time>2013-03-03T13:59:12Z</time>
      </trkpt>
      <trkpt lat="43.47374" lon="6.91804">
        <ele>140.01</ele>
        <time>2013-03-03T13:59:27Z</time>
      </trkpt>
      <trkpt lat="43.47367" lon="6.91815">
        <ele>138.57</ele>
        <time>2013-03-03T13:59:36Z</time>
      </trkpt>
      <trkpt lat="43.47349" lon="6.91832">
        <ele>136.16</ele>
        <time>2013-03-03T13:59:54Z</time>
      </trkpt>
      <trkpt lat="43.47337" lon="6.91841">
        <ele>136.16</ele>
        <time>2013-03-03T14:00:08Z</time>
      </trkpt>
      <trkpt lat="43.47336" lon="6.91843">
        <ele>135.68</ele>
        <time>2013-03-03T14:00:32Z</time>
      </trkpt>
      <trkpt lat="43.47329" lon="6.91846">
        <ele>135.68</ele>
        <time>2013-03-03T14:01:04Z</time>
      </trkpt>
      <trkpt lat="43.47329" lon="6.91846">
        <ele>135.2</ele>
        <time>2013-03-03T14:01:05Z</time>
      </trkpt>
      <trkpt lat="43.47328" lon="6.91842">
        <ele>136.16</ele>
        <time>2013-03-03T14:01:17Z</time>
      </trkpt>
      <trkpt lat="43.47325" lon="6.91841">
        <ele>133.28</ele>
        <time>2013-03-03T14:01:21Z</time>
      </trkpt>
      <trkpt lat="43.47322" lon="6.91842">
        <ele>133.28</ele>
        <time>2013-03-03T14:01:24Z</time>
      </trkpt>
      <trkpt lat="43.47318" lon="6.91844">
        <ele>131.84</ele>
        <time>2013-03-03T14:01:28Z</time>
      </trkpt>
      <trkpt lat="43.47305" lon="6.91841">
        <ele>128.95</ele>
        <time>2013-03-03T14:01:41Z</time>
      </trkpt>
      <trkpt lat="43.47294" lon="6.91834">
        <ele>126.55</ele>
        <time>2013-03-03T14:01:55Z</time>
      </trkpt>
      <trkpt lat="43.47293" lon="6.91831">
        <ele>126.55</ele>
        <time>2013-03-03T14:02:14Z</time>
      </trkpt>
      <trkpt lat="43.47294" lon="6.91829">
        <ele>127.03</ele>
        <time>2013-03-03T14:02:35Z</time>
      </trkpt>
      <trkpt lat="43.47292" lon="6.91824">
        <ele>127.03</ele>
        <time>2013-03-03T14:03:02Z</time>
      </trkpt>
      <trkpt lat="43.47285" lon="6.91813">
        <ele>124.15</ele>
        <time>2013-03-03T14:03:15Z</time>
      </trkpt>
      <trkpt lat="43.47276" lon="6.91793">
        <ele>122.22</ele>
        <time>2013-03-03T14:03:31Z</time>
      </trkpt>
      <trkpt lat="43.47273" lon="6.91785">
        <ele>121.26</ele>
        <time>2013-03-03T14:03:37Z</time>
      </trkpt>
      <trkpt lat="43.47261" lon="6.9176">
        <ele>119.82</ele>
        <time>2013-03-03T14:03:54Z</time>
      </trkpt>
      <trkpt lat="43.47257" lon="6.91751">
        <ele>119.34</ele>
        <time>2013-03-03T14:04:02Z</time>
      </trkpt>
      <trkpt lat="43.47252" lon="6.91748">
        <ele>119.34</ele>
        <time>2013-03-03T14:04:06Z</time>
      </trkpt>
      <trkpt lat="43.47244" lon="6.9174">
        <ele>117.9</ele>
        <time>2013-03-03T14:04:17Z</time>
      </trkpt>
      <trkpt lat="43.47228" lon="6.91729">
        <ele>116.94</ele>
        <time>2013-03-03T14:04:33Z</time>
      </trkpt>
      <trkpt lat="43.47223" lon="6.91729">
        <ele>116.94</ele>
        <time>2013-03-03T14:04:46Z</time>
      </trkpt>
      <trkpt lat="43.47227" lon="6.91735">
        <ele>115.5</ele>
        <time>2013-03-03T14:04:58Z</time>
      </trkpt>
      <trkpt lat="43.47237" lon="6.91746">
        <ele>112.13</ele>
        <time>2013-03-03T14:05:09Z</time>
      </trkpt>
      <trkpt lat="43.47244" lon="6.91757">
        <ele>109.73</ele>
        <time>2013-03-03T14:05:20Z</time>
      </trkpt>
      <trkpt lat="43.47249" lon="6.91782">
        <ele>106.84</ele>
        <time>2013-03-03T14:05:34Z</time>
      </trkpt>
      <trkpt lat="43.47253" lon="6.91798">
        <ele>104.44</ele>
        <time>2013-03-03T14:05:46Z</time>
      </trkpt>
      <trkpt lat="43.47254" lon="6.91808">
        <ele>102.52</ele>
        <time>2013-03-03T14:05:59Z</time>
      </trkpt>
      <trkpt lat="43.47254" lon="6.91824">
        <ele>99.15</ele>
        <time>2013-03-03T14:06:13Z</time>
      </trkpt>
      <trkpt lat="43.47253" lon="6.9184">
        <ele>96.75</ele>
        <time>2013-03-03T14:06:26Z</time>
      </trkpt>
      <trkpt lat="43.47251" lon="6.91864">
        <ele>95.79</ele>
        <time>2013-03-03T14:06:38Z</time>
      </trkpt>
      <trkpt lat="43.47252" lon="6.91883">
        <ele>93.39</ele>
        <time>2013-03-03T14:06:51Z</time>
      </trkpt>
      <trkpt lat="43.47254" lon="6.91904">
        <ele>90.5</ele>
        <time>2013-03-03T14:07:04Z</time>
      </trkpt>
      <trkpt lat="43.47261" lon="6.91925">
        <ele>88.1</ele>
        <time>2013-03-03T14:07:18Z</time>
      </trkpt>
      <trkpt lat="43.4727" lon="6.91934">
        <ele>85.21</ele>
        <time>2013-03-03T14:07:31Z</time>
      </trkpt>
      <trkpt lat="43.47279" lon="6.9194">
        <ele>83.77</ele>
        <time>2013-03-03T14:07:41Z</time>
      </trkpt>
      <trkpt lat="43.47291" lon="6.91949">
        <ele>80.41</ele>
        <time>2013-03-03T14:07:55Z</time>
      </trkpt>
      <trkpt lat="43.47299" lon="6.91953">
        <ele>79.45</ele>
        <time>2013-03-03T14:08:03Z</time>
      </trkpt>
      <trkpt lat="43.47305" lon="6.9197">
        <ele>76.08</ele>
        <time>2013-03-03T14:08:16Z</time>
      </trkpt>
      <trkpt lat="43.47303" lon="6.91973">
        <ele>76.08</ele>
        <time>2013-03-03T14:08:19Z</time>
      </trkpt>
      <trkpt lat="43.47297" lon="6.91996">
        <ele>73.2</ele>
        <time>2013-03-03T14:08:31Z</time>
      </trkpt>
      <trkpt lat="43.47293" lon="6.9201">
        <ele>71.27</ele>
        <time>2013-03-03T14:08:43Z</time>
      </trkpt>
      <trkpt lat="43.4729" lon="6.92026">
        <ele>68.87</ele>
        <time>2013-03-03T14:08:57Z</time>
      </trkpt>
      <trkpt lat="43.47288" lon="6.92037">
        <ele>66.95</ele>
        <time>2013-03-03T14:09:08Z</time>
      </trkpt>
      <trkpt lat="43.47285" lon="6.92048">
        <ele>64.55</ele>
        <time>2013-03-03T14:09:20Z</time>
      </trkpt>
      <trkpt lat="43.47284" lon="6.92062">
        <ele>62.62</ele>
        <time>2013-03-03T14:09:33Z</time>
      </trkpt>
      <trkpt lat="43.47283" lon="6.92074">
        <ele>60.22</ele>
        <time>2013-03-03T14:09:44Z</time>
      </trkpt>
      <trkpt lat="43.47283" lon="6.92075">
        <ele>60.22</ele>
        <time>2013-03-03T14:09:45Z</time>
      </trkpt>
      <trkpt lat="43.47282" lon="6.92086">
        <ele>59.26</ele>
        <time>2013-03-03T14:09:49Z</time>
      </trkpt>
      <trkpt lat="43.47279" lon="6.92111">
        <ele>57.34</ele>
        <time>2013-03-03T14:10:01Z</time>
      </trkpt>
      <trkpt lat="43.47282" lon="6.92131">
        <ele>55.41</ele>
        <time>2013-03-03T14:10:14Z</time>
      </trkpt>
      <trkpt lat="43.47289" lon="6.92146">
        <ele>53.49</ele>
        <time>2013-03-03T14:10:28Z</time>
      </trkpt>
      <trkpt lat="43.47293" lon="6.9215">
        <ele>52.53</ele>
        <time>2013-03-03T14:10:34Z</time>
      </trkpt>
      <trkpt lat="43.47302" lon="6.9217">
        <ele>51.09</ele>
        <time>2013-03-03T14:10:47Z</time>
      </trkpt>
      <trkpt lat="43.47304" lon="6.92174">
        <ele>50.61</ele>
        <time>2013-03-03T14:10:49Z</time>
      </trkpt>
      <trkpt lat="43.47319" lon="6.92181">
        <ele>49.65</ele>
        <time>2013-03-03T14:11:03Z</time>
      </trkpt>
      <trkpt lat="43.47341" lon="6.9219">
        <ele>48.2</ele>
        <time>2013-03-03T14:11:19Z</time>
      </trkpt>
      <trkpt lat="43.47352" lon="6.92196">
        <ele>47.72</ele>
        <time>2013-03-03T14:11:28Z</time>
      </trkpt>
      <trkpt lat="43.4736" lon="6.92187">
        <ele>45.8</ele>
        <time>2013-03-03T14:11:42Z</time>
      </trkpt>
      <trkpt lat="43.4737" lon="6.92186">
        <ele>43.4</ele>
        <time>2013-03-03T14:11:52Z</time>
      </trkpt>
      <trkpt lat="43.47388" lon="6.92189">
        <ele>40.99</ele>
        <time>2013-03-03T14:12:06Z</time>
      </trkpt>
      <trkpt lat="43.47404" lon="6.922">
        <ele>39.55</ele>
        <time>2013-03-03T14:12:18Z</time>
      </trkpt>
      <trkpt lat="43.4741" lon="6.9222">
        <ele>36.19</ele>
        <time>2013-03-03T14:12:32Z</time>
      </trkpt>
      <trkpt lat="43.4741" lon="6.92234">
        <ele>34.74</ele>
        <time>2013-03-03T14:12:44Z</time>
      </trkpt>
      <trkpt lat="43.47418" lon="6.92249">
        <ele>32.82</ele>
        <time>2013-03-03T14:12:59Z</time>
      </trkpt>
      <trkpt lat="43.47426" lon="6.92269">
        <ele>30.42</ele>
        <time>2013-03-03T14:13:11Z</time>
      </trkpt>
      <trkpt lat="43.47432" lon="6.92285">
        <ele>28.5</ele>
        <time>2013-03-03T14:13:19Z</time>
      </trkpt>
      <trkpt lat="43.47433" lon="6.92304">
        <ele>28.02</ele>
        <time>2013-03-03T14:13:33Z</time>
      </trkpt>
      <trkpt lat="43.47438" lon="6.92327">
        <ele>27.53</ele>
        <time>2013-03-03T14:13:49Z</time>
      </trkpt>
      <trkpt lat="43.47449" lon="6.92349">
        <ele>27.05</ele>
        <time>2013-03-03T14:14:04Z</time>
      </trkpt>
      <trkpt lat="43.47458" lon="6.92364">
        <ele>27.53</ele>
        <time>2013-03-03T14:14:18Z</time>
      </trkpt>
      <trkpt lat="43.47465" lon="6.92389">
        <ele>26.57</ele>
        <time>2013-03-03T14:14:32Z</time>
      </trkpt>
      <trkpt lat="43.47473" lon="6.92411">
        <ele>26.09</ele>
        <time>2013-03-03T14:14:45Z</time>
      </trkpt>
      <trkpt lat="43.47484" lon="6.92435">
        <ele>25.13</ele>
        <time>2013-03-03T14:15:02Z</time>
      </trkpt>
      <trkpt lat="43.47488" lon="6.92445">
        <ele>23.21</ele>
        <time>2013-03-03T14:15:11Z</time>
      </trkpt>
    </trkseg>
  </trk>
</gpx>